Wetterdaten: Freitag, 14.09.2018
Datum Zeit Temp. Aussen Temp. o. S. +5cm Feuchte Auss Luftdruck Regen Sonnenschein Regendauer Solar Windben Empfang
14.09.2018 00:00 11,4 C 10,6 C 10,6 C 84 % 1019,4 hPa 0,0 l/m 0 min 0 min 0 W/m 4,5 km/h (1 Bft) 100,00 %
14.09.2018 00:02 11,3 C 10,6 C 10,6 C 85 % 1019,3 hPa 0,0 l/m 0 min 0 min 0 W/m 0,0 km/h (0 Bft) 97,56 %
14.09.2018 00:04 11,3 C 11,1 C 10,6 C 85 % 1019,4 hPa 0,0 l/m 0 min 0 min 0 W/m 0,0 km/h (0 Bft) 100,00 %
14.09.2018 00:07 11,3 C 11,1 C 11,1 C 85 % 1019,4 hPa 0,0 l/m 0 min 0 min 0 W/m 0,0 km/h (0 Bft) 98,65 %
14.09.2018 00:08 11,3 C 11,1 C 11,1 C 85 % 1019,4 hPa 0,0 l/m 0 min 0 min 0 W/m 0,0 km/h (0 Bft) 100,00 %
14.09.2018 00:10 11,3 C 11,1 C 11,1 C 85 % 1019,4 hPa 0,0 l/m 0 min 0 min 0 W/m 2,3 km/h (1 Bft) 100,00 %
14.09.2018 00:12 11,2 C 11,1 C 11,1 C 85 % 1019,4 hPa 0,0 l/m 0 min 0 min 0 W/m 0,0 km/h (0 Bft) 97,87 %
14.09.2018 00:14 11,2 C 11,7 C 11,1 C 85 % 1019,4 hPa 0,0 l/m 0 min 0 min 0 W/m 6,8 km/h (2 Bft) 100,00 %
14.09.2018 00:16 11,2 C 11,1 C 11,1 C 85 % 1019,4 hPa 0,0 l/m 0 min 0 min 0 W/m 2,3 km/h (1 Bft) 97,83 %
14.09.2018 00:18 11,2 C 11,7 C 11,7 C 85 % 1019,4 hPa 0,0 l/m 0 min 0 min 0 W/m 2,3 km/h (1 Bft) 100,00 %
14.09.2018 00:20 11,2 C 11,7 C 11,7 C 85 % 1019,4 hPa 0,0 l/m 0 min 0 min 0 W/m 2,3 km/h (1 Bft) 100,00 %
14.09.2018 00:22 11,2 C 11,7 C 11,7 C 86 % 1019,4 hPa 0,0 l/m 0 min 0 min 0 W/m 6,8 km/h (2 Bft) 100,00 %
14.09.2018 00:24 11,3 C 11,7 C 11,7 C 86 % 1019,4 hPa 0,0 l/m 0 min 0 min 0 W/m 4,5 km/h (1 Bft) 95,74 %
14.09.2018 00:26 11,3 C 11,7 C 11,7 C 86 % 1019,4 hPa 0,0 l/m 0 min 0 min 0 W/m 0,0 km/h (0 Bft) 97,83 %
14.09.2018 00:28 11,3 C 11,7 C 11,7 C 86 % 1019,4 hPa 0,0 l/m 0 min 0 min 0 W/m 2,3 km/h (1 Bft) 97,87 %
14.09.2018 00:30 11,3 C 11,7 C 11,7 C 86 % 1019,5 hPa 0,0 l/m 0 min 0 min 0 W/m 6,8 km/h (2 Bft) 97,87 %
14.09.2018 00:32 11,4 C 11,7 C 11,7 C 86 % 1019,5 hPa 0,0 l/m 0 min 0 min 0 W/m 0,0 km/h (0 Bft) 95,92 %
14.09.2018 00:34 11,4 C 11,7 C 11,7 C 86 % 1019,5 hPa 0,0 l/m 0 min 0 min 0 W/m 2,3 km/h (1 Bft) 97,87 %
14.09.2018 00:36 11,4 C 11,7 C 11,7 C 86 % 1019,5 hPa 0,0 l/m 0 min 0 min 0 W/m 2,3 km/h (1 Bft) 97,87 %
14.09.2018 00:38 11,4 C 11,7 C 11,7 C 86 % 1019,5 hPa 0,0 l/m 0 min 0 min 0 W/m 2,3 km/h (1 Bft) 97,83 %
14.09.2018 00:40 11,5 C 11,7 C 11,7 C 86 % 1019,6 hPa 0,0 l/m 0 min 0 min 0 W/m 0,0 km/h (0 Bft) 97,87 %
14.09.2018 00:42 11,5 C 11,7 C 11,1 C 86 % 1019,6 hPa 0,0 l/m 0 min 0 min 0 W/m 0,0 km/h (0 Bft) 97,87 %
14.09.2018 00:44 11,5 C 11,7 C 11,1 C 86 % 1019,6 hPa 0,0 l/m 0 min 0 min 0 W/m 0,0 km/h (0 Bft) 97,87 %
14.09.2018 00:46 11,6 C 11,1 C 11,1 C 86 % 1019,6 hPa 0,0 l/m 0 min 0 min 0 W/m 0,0 km/h (0 Bft) 97,87 %
14.09.2018 00:48 11,6 C 11,1 C 11,1 C 86 % 1019,6 hPa 0,0 l/m 0 min 0 min 0 W/m 2,3 km/h (1 Bft) 97,83 %
14.09.2018 00:50 11,6 C 11,7 C 11,1 C 86 % 1019,6 hPa 0,0 l/m 0 min 0 min 0 W/m 0,0 km/h (0 Bft) 95,74 %
14.09.2018 00:52 11,6 C 11,7 C 11,1 C 86 % 1019,6 hPa 0,0 l/m 0 min 0 min 0 W/m 2,3 km/h (1 Bft) 97,87 %
14.09.2018 00:54 11,6 C 11,1 C 11,1 C 85 % 1019,6 hPa 0,0 l/m 0 min 0 min 0 W/m 2,3 km/h (1 Bft) 97,87 %
14.09.2018 00:56 11,6 C 11,1 C 11,1 C 85 % 1019,7 hPa 0,0 l/m 0 min 0 min 0 W/m 0,0 km/h (0 Bft) 97,87 %
14.09.2018 00:58 11,6 C 11,7 C 11,1 C 85 % 1019,7 hPa 0,0 l/m 0 min 0 min 0 W/m 0,0 km/h (0 Bft) 95,74 %
14.09.2018 01:00 11,6 C 11,7 C 11,1 C 85 % 1019,6 hPa 0,0 l/m 0 min 0 min 0 W/m 4,5 km/h (1 Bft) 95,65 %
14.09.2018 01:02 11,6 C 11,7 C 11,1 C 85 % 1019,7 hPa 0,0 l/m 0 min 0 min 0 W/m 0,0 km/h (0 Bft) 100,00 %
14.09.2018 01:04 11,6 C 11,1 C 11,1 C 85 % 1019,7 hPa 0,0 l/m 0 min 0 min 0 W/m 0,0 km/h (0 Bft) 95,74 %
14.09.2018 01:06 11,6 C 11,1 C 11,1 C 85 % 1019,7 hPa 0,0 l/m 0 min 0 min 0 W/m 0,0 km/h (0 Bft) 96,36 %
14.09.2018 01:08 11,6 C 11,1 C 10,6 C 85 % 1019,7 hPa 0,0 l/m 0 min 0 min 0 W/m 0,0 km/h (0 Bft) 97,87 %
14.09.2018 01:10 11,7 C 11,1 C 10,6 C 85 % 1019,6 hPa 0,0 l/m 0 min 0 min 0 W/m 0,0 km/h (0 Bft) 97,87 %
14.09.2018 01:12 11,7 C 11,1 C 10,6 C 85 % 1019,6 hPa 0,0 l/m 0 min 0 min 0 W/m 0,0 km/h (0 Bft) 97,87 %
14.09.2018 01:14 11,7 C 10,6 C 10,6 C 85 % 1019,6 hPa 0,0 l/m 0 min 0 min 0 W/m 0,0 km/h (0 Bft) 97,83 %
14.09.2018 01:16 11,6 C 10,6 C 10,6 C 85 % 1019,6 hPa 0,0 l/m 0 min 0 min 0 W/m 0,0 km/h (0 Bft) 97,87 %
14.09.2018 01:18 11,6 C 10,6 C 10,6 C 85 % 1019,7 hPa 0,0 l/m 0 min 0 min 0 W/m 0,0 km/h (0 Bft) 97,87 %
14.09.2018 01:20 11,6 C 10,6 C 10,0 C 85 % 1019,7 hPa 0,0 l/m 0 min 0 min 0 W/m 0,0 km/h (0 Bft) 97,87 %
14.09.2018 01:22 11,6 C 10,6 C 10,0 C 85 % 1019,7 hPa 0,0 l/m 0 min 0 min 0 W/m 0,0 km/h (0 Bft) 95,83 %
14.09.2018 01:24 11,6 C 10,6 C 10,0 C 85 % 1019,7 hPa 0,0 l/m 0 min 0 min 0 W/m 0,0 km/h (0 Bft) 95,74 %
14.09.2018 01:26 11,6 C 10,0 C 10,0 C 85 % 1019,6 hPa 0,0 l/m 0 min 0 min 0 W/m 0,0 km/h (0 Bft) 97,83 %
14.09.2018 01:28 11,6 C 10,0 C 10,0 C 85 % 1019,5 hPa 0,0 l/m 0 min 0 min 0 W/m 0,0 km/h (0 Bft) 97,87 %
14.09.2018 01:30 11,6 C 10,0 C 10,0 C 85 % 1019,6 hPa 0,0 l/m 0 min 0 min 0 W/m 0,0 km/h (0 Bft) 97,87 %
14.09.2018 01:32 11,5 C 10,0 C 10,0 C 85 % 1019,6 hPa 0,0 l/m 0 min 0 min 0 W/m 0,0 km/h (0 Bft) 97,87 %
14.09.2018 01:34 11,5 C 10,0 C 10,0 C 85 % 1019,7 hPa 0,0 l/m 0 min 0 min 0 W/m 0,0 km/h (0 Bft) 95,74 %
14.09.2018 01:36 11,4 C 10,0 C 10,0 C 85 % 1019,6 hPa 0,0 l/m 0 min 0 min 0 W/m 0,0 km/h (0 Bft) 95,65 %
14.09.2018 01:38 11,4 C 10,0 C 10,0 C 85 % 1019,6 hPa 0,0 l/m 0 min 0 min 0 W/m 0,0 km/h (0 Bft) 97,87 %
14.09.2018 01:40 11,4 C 10,0 C 9,4 C 85 % 1019,6 hPa 0,0 l/m 0 min 0 min 0 W/m 0,0 km/h (0 Bft) 97,87 %
14.09.2018 01:42 11,4 C 10,0 C 9,4 C 85 % 1019,6 hPa 0,0 l/m 0 min 0 min 0 W/m 0,0 km/h (0 Bft) 95,74 %
14.09.2018 01:44 11,3 C 9,4 C 9,4 C 85 % 1019,6 hPa 0,0 l/m 0 min 0 min 0 W/m 0,0 km/h (0 Bft) 97,87 %
14.09.2018 01:46 11,3 C 9,4 C 9,4 C 85 % 1019,6 hPa 0,0 l/m 0 min 0 min 0 W/m 0,0 km/h (0 Bft) 95,74 %
14.09.2018 01:48 11,3 C 9,4 C 9,4 C 85 % 1019,5 hPa 0,0 l/m 0 min 0 min 0 W/m 0,0 km/h (0 Bft) 97,87 %
14.09.2018 01:50 11,2 C 9,4 C 9,4 C 85 % 1019,6 hPa 0,0 l/m 0 min 0 min 0 W/m 0,0 km/h (0 Bft) 97,83 %
14.09.2018 01:52 11,2 C 9,4 C 9,4 C 85 % 1019,5 hPa 0,0 l/m 0 min 0 min 0 W/m 0,0 km/h (0 Bft) 97,87 %
14.09.2018 01:54 11,2 C 9,4 C 9,4 C 85 % 1019,6 hPa 0,0 l/m 0 min 0 min 0 W/m 0,0 km/h (0 Bft) 95,74 %
14.09.2018 01:56 11,1 C 9,4 C 9,4 C 85 % 1019,6 hPa 0,0 l/m 0 min 0 min 0 W/m 0,0 km/h (0 Bft) 95,74 %
14.09.2018 01:58 11,1 C 9,4 C 9,4 C 85 % 1019,6 hPa 0,0 l/m 0 min 0 min 0 W/m 0,0 km/h (0 Bft) 95,74 %
14.09.2018 02:00 11,1 C 9,4 C 9,4 C 85 % 1019,6 hPa 0,0 l/m 0 min 0 min 0 W/m 0,0 km/h (0 Bft) 91,30 %
14.09.2018 02:02 11,0 C 9,4 C 9,4 C 85 % 1019,6 hPa 0,0 l/m 0 min 0 min 0 W/m 0,0 km/h (0 Bft) 93,88 %
14.09.2018 02:04 10,9 C 9,4 C 9,4 C 85 % 1019,6 hPa 0,0 l/m 0 min 0 min 0 W/m 0,0 km/h (0 Bft) 93,62 %
14.09.2018 02:08 10,9 C 9,4 C 9,4 C 85 % 1019,6 hPa 0,0 l/m 0 min 0 min 0 W/m 0,0 km/h (0 Bft) 95,24 %
14.09.2018 02:10 10,8 C 9,4 C 9,4 C 85 % 1019,6 hPa 0,0 l/m 0 min 0 min 0 W/m 0,0 km/h (0 Bft) 97,87 %
14.09.2018 02:12 10,8 C 9,4 C 9,4 C 85 % 1019,7 hPa 0,0 l/m 0 min 0 min 0 W/m 0,0 km/h (0 Bft) 95,65 %
14.09.2018 02:14 10,8 C 9,4 C 9,4 C 86 % 1019,6 hPa 0,0 l/m 0 min 0 min 0 W/m 0,0 km/h (0 Bft) 97,87 %
14.09.2018 02:16 10,7 C 9,4 C 9,4 C 86 % 1019,5 hPa 0,0 l/m 0 min 0 min 0 W/m 0,0 km/h (0 Bft) 97,87 %
14.09.2018 02:18 10,7 C 8,9 C 9,4 C 86 % 1019,6 hPa 0,0 l/m 0 min 0 min 0 W/m 0,0 km/h (0 Bft) 97,87 %
14.09.2018 02:20 10,7 C 8,9 C 9,4 C 86 % 1019,5 hPa 0,0 l/m 0 min 0 min 0 W/m 0,0 km/h (0 Bft) 97,87 %
14.09.2018 02:22 10,6 C 8,9 C 8,9 C 86 % 1019,5 hPa 0,0 l/m 0 min 0 min 0 W/m 0,0 km/h (0 Bft) 97,87 %
14.09.2018 02:24 10,6 C 8,9 C 8,9 C 86 % 1019,5 hPa 0,0 l/m 0 min 0 min 0 W/m 0,0 km/h (0 Bft) 97,83 %
14.09.2018 02:26 10,6 C 8,9 C 8,9 C 86 % 1019,5 hPa 0,0 l/m 0 min 0 min 0 W/m 0,0 km/h (0 Bft) 95,74 %
14.09.2018 02:28 10,5 C 8,9 C 8,9 C 86 % 1019,5 hPa 0,0 l/m 0 min 0 min 0 W/m 0,0 km/h (0 Bft) 97,87 %
14.09.2018 02:30 10,5 C 8,9 C 8,9 C 86 % 1019,4 hPa 0,0 l/m 0 min 0 min 0 W/m 0,0 km/h (0 Bft) 97,87 %
14.09.2018 02:32 10,4 C 8,9 C 8,9 C 86 % 1019,5 hPa 0,0 l/m 0 min 0 min 0 W/m 0,0 km/h (0 Bft) 97,87 %
14.09.2018 02:34 10,4 C 8,9 C 8,9 C 86 % 1019,4 hPa 0,0 l/m 0 min 0 min 0 W/m 0,0 km/h (0 Bft) 97,87 %
14.09.2018 02:36 10,4 C 8,9 C 8,9 C 86 % 1019,4 hPa 0,0 l/m 0 min 0 min 0 W/m 0,0 km/h (0 Bft) 97,83 %
14.09.2018 02:38 10,3 C 8,9 C 8,9 C 86 % 1019,4 hPa 0,0 l/m 0 min 0 min 0 W/m 0,0 km/h (0 Bft) 97,87 %
14.09.2018 02:40 10,3 C 8,9 C 8,9 C 86 % 1019,3 hPa 0,0 l/m 0 min 0 min 0 W/m 0,0 km/h (0 Bft) 97,87 %
14.09.2018 02:42 10,3 C 8,9 C 8,9 C 86 % 1019,3 hPa 0,0 l/m 0 min 0 min 0 W/m 0,0 km/h (0 Bft) 97,87 %
14.09.2018 02:44 10,2 C 8,9 C 8,9 C 86 % 1019,3 hPa 0,0 l/m 0 min 0 min 0 W/m 0,0 km/h (0 Bft) 95,74 %
14.09.2018 02:46 10,2 C 8,9 C 8,9 C 86 % 1019,2 hPa 0,0 l/m 0 min 0 min 0 W/m 0,0 km/h (0 Bft) 97,87 %
14.09.2018 02:48 10,2 C 8,9 C 8,9 C 87 % 1019,2 hPa 0,0 l/m 0 min 0 min 0 W/m 0,0 km/h (0 Bft) 97,87 %
14.09.2018 02:50 10,1 C 8,9 C 8,9 C 87 % 1019,2 hPa 0,0 l/m 0 min 0 min 0 W/m 0,0 km/h (0 Bft) 100,00 %
14.09.2018 02:52 10,1 C 8,9 C 8,9 C 87 % 1019,2 hPa 0,0 l/m 0 min 0 min 0 W/m 0,0 km/h (0 Bft) 100,00 %
14.09.2018 02:54 10,1 C 8,9 C 8,9 C 87 % 1019,3 hPa 0,0 l/m 0 min 0 min 0 W/m 0,0 km/h (0 Bft) 100,00 %
14.09.2018 02:56 10,0 C 8,9 C 8,9 C 87 % 1019,3 hPa 0,0 l/m 0 min 0 min 0 W/m 0,0 km/h (0 Bft) 100,00 %
14.09.2018 02:58 10,0 C 8,9 C 8,9 C 87 % 1019,3 hPa 0,0 l/m 0 min 0 min 0 W/m 0,0 km/h (0 Bft) 97,83 %
14.09.2018 03:00 9,9 C 8,9 C 8,9 C 87 % 1019,3 hPa 0,0 l/m 0 min 0 min 0 W/m 0,0 km/h (0 Bft) 97,87 %
14.09.2018 03:02 9,9 C 8,3 C 8,9 C 87 % 1019,3 hPa 0,0 l/m 0 min 0 min 0 W/m 0,0 km/h (0 Bft) 100,00 %
14.09.2018 03:04 9,9 C 8,3 C 8,9 C 87 % 1019,4 hPa 0,0 l/m 0 min 0 min 0 W/m 0,0 km/h (0 Bft) 100,00 %
14.09.2018 03:08 9,8 C 8,3 C 8,3 C 87 % 1019,3 hPa 0,0 l/m 0 min 0 min 0 W/m 0,0 km/h (0 Bft) 97,87 %
14.09.2018 03:10 9,8 C 8,3 C 8,3 C 88 % 1019,3 hPa 0,0 l/m 0 min 0 min 0 W/m 0,0 km/h (0 Bft) 97,83 %
14.09.2018 03:12 9,8 C 8,3 C 8,3 C 88 % 1019,3 hPa 0,0 l/m 0 min 0 min 0 W/m 0,0 km/h (0 Bft) 100,00 %
14.09.2018 03:14 9,7 C 8,3 C 8,3 C 87 % 1019,3 hPa 0,0 l/m 0 min 0 min 0 W/m 0,0 km/h (0 Bft) 100,00 %
14.09.2018 03:16 9,7 C 8,3 C 8,9 C 88 % 1019,4 hPa 0,0 l/m 0 min 0 min 0 W/m 0,0 km/h (0 Bft) 97,87 %
14.09.2018 03:18 9,7 C 8,3 C 8,9 C 88 % 1019,4 hPa 0,0 l/m 0 min 0 min 0 W/m 0,0 km/h (0 Bft) 100,00 %
14.09.2018 03:20 9,6 C 8,3 C 8,9 C 88 % 1019,4 hPa 0,0 l/m 0 min 0 min 0 W/m 0,0 km/h (0 Bft) 100,00 %
14.09.2018 03:22 9,6 C 8,3 C 8,3 C 88 % 1019,3 hPa 0,0 l/m 0 min 0 min 0 W/m 0,0 km/h (0 Bft) 100,00 %
14.09.2018 03:24 9,6 C 8,3 C 8,3 C 88 % 1019,3 hPa 0,0 l/m 0 min 0 min 0 W/m 0,0 km/h (0 Bft) 97,87 %
14.09.2018 03:26 9,6 C 8,3 C 8,3 C 88 % 1019,3 hPa 0,0 l/m 0 min 0 min 0 W/m 0,0 km/h (0 Bft) 100,00 %
14.09.2018 03:28 9,5 C 8,3 C 8,3 C 88 % 1019,3 hPa 0,0 l/m 0 min 0 min 0 W/m 0,0 km/h (0 Bft) 100,00 %
14.09.2018 03:30 9,5 C 8,3 C 8,3 C 88 % 1019,3 hPa 0,0 l/m 0 min 0 min 0 W/m 0,0 km/h (0 Bft) 97,87 %
14.09.2018 03:32 9,4 C 7,8 C 8,3 C 88 % 1019,3 hPa 0,0 l/m 0 min 0 min 0 W/m 2,3 km/h (1 Bft) 95,74 %
14.09.2018 03:34 9,4 C 7,8 C 8,3 C 88 % 1019,3 hPa 0,0 l/m 0 min 0 min 0 W/m 0,0 km/h (0 Bft) 100,00 %
14.09.2018 03:36 9,4 C 7,8 C 8,3 C 88 % 1019,2 hPa 0,0 l/m 0 min 0 min 0 W/m 0,0 km/h (0 Bft) 100,00 %
14.09.2018 03:38 9,4 C 8,3 C 8,3 C 88 % 1019,2 hPa 0,0 l/m 0 min 0 min 0 W/m 0,0 km/h (0 Bft) 97,87 %
14.09.2018 03:40 9,3 C 8,3 C 8,3 C 88 % 1019,2 hPa 0,0 l/m 0 min 0 min 0 W/m 0,0 km/h (0 Bft) 97,87 %
14.09.2018 03:42 9,3 C 8,3 C 8,3 C 89 % 1019,2 hPa 0,0 l/m 0 min 0 min 0 W/m 0,0 km/h (0 Bft) 97,87 %
14.09.2018 03:44 9,3 C 7,8 C 8,3 C 89 % 1019,2 hPa 0,0 l/m 0 min 0 min 0 W/m 0,0 km/h (0 Bft) 97,87 %
14.09.2018 03:46 9,3 C 7,8 C 8,3 C 89 % 1019,2 hPa 0,0 l/m 0 min 0 min 0 W/m 0,0 km/h (0 Bft) 97,62 %
14.09.2018 03:48 9,2 C 7,8 C 8,3 C 89 % 1019,2 hPa 0,0 l/m 0 min 0 min 0 W/m 0,0 km/h (0 Bft) 97,87 %
14.09.2018 03:50 9,2 C 7,8 C 8,3 C 89 % 1019,2 hPa 0,0 l/m 0 min 0 min 0 W/m 0,0 km/h (0 Bft) 97,87 %
14.09.2018 03:52 9,2 C 7,8 C 8,3 C 89 % 1019,2 hPa 0,0 l/m 0 min 0 min 0 W/m 0,0 km/h (0 Bft) 97,87 %
14.09.2018 03:54 9,2 C 7,8 C 8,3 C 89 % 1019,1 hPa 0,0 l/m 0 min 0 min 0 W/m 0,0 km/h (0 Bft) 97,87 %
14.09.2018 03:56 9,1 C 7,8 C 8,3 C 89 % 1019,1 hPa 0,0 l/m 0 min 0 min 0 W/m 0,0 km/h (0 Bft) 97,83 %
14.09.2018 03:58 9,1 C 7,8 C 8,3 C 89 % 1019,1 hPa 0,0 l/m 0 min 0 min 0 W/m 0,0 km/h (0 Bft) 97,87 %
14.09.2018 04:00 9,1 C 7,8 C 8,3 C 89 % 1019,1 hPa 0,0 l/m 0 min 0 min 0 W/m 0,0 km/h (0 Bft) 95,74 %
14.09.2018 04:02 9,1 C 7,8 C 8,3 C 89 % 1019,1 hPa 0,0 l/m 0 min 0 min 0 W/m 0,0 km/h (0 Bft) 100,00 %
14.09.2018 04:04 9,1 C 7,8 C 8,3 C 89 % 1019,1 hPa 0,0 l/m 0 min 0 min 0 W/m 0,0 km/h (0 Bft) 97,87 %
14.09.2018 04:06 9,0 C 7,8 C 7,8 C 89 % 1019,2 hPa 0,0 l/m 0 min 0 min 0 W/m 0,0 km/h (0 Bft) 95,74 %
14.09.2018 04:08 9,0 C 7,8 C 7,8 C 89 % 1019,1 hPa 0,0 l/m 0 min 0 min 0 W/m 0,0 km/h (0 Bft) 95,74 %
14.09.2018 04:10 8,9 C 7,8 C 7,8 C 89 % 1019,1 hPa 0,0 l/m 0 min 0 min 0 W/m 0,0 km/h (0 Bft) 97,83 %
14.09.2018 04:12 8,9 C 7,8 C 7,8 C 89 % 1019,0 hPa 0,0 l/m 0 min 0 min 0 W/m 0,0 km/h (0 Bft) 100,00 %
14.09.2018 04:14 8,9 C 7,8 C 8,3 C 89 % 1019,2 hPa 0,0 l/m 0 min 0 min 0 W/m 0,0 km/h (0 Bft) 95,74 %
14.09.2018 04:16 8,9 C 7,8 C 7,8 C 89 % 1019,1 hPa 0,0 l/m 0 min 0 min 0 W/m 0,0 km/h (0 Bft) 100,00 %
14.09.2018 04:18 8,9 C 7,8 C 7,8 C 89 % 1019,1 hPa 0,0 l/m 0 min 0 min 0 W/m 0,0 km/h (0 Bft) 100,00 %
14.09.2018 04:20 8,8 C 7,8 C 7,8 C 89 % 1019,2 hPa 0,0 l/m 0 min 0 min 0 W/m 0,0 km/h (0 Bft) 100,00 %
14.09.2018 04:22 8,8 C 7,8 C 7,8 C 89 % 1019,1 hPa 0,0 l/m 0 min 0 min 0 W/m 0,0 km/h (0 Bft) 100,00 %
14.09.2018 04:24 8,8 C 7,8 C 7,8 C 90 % 1019,2 hPa 0,0 l/m 0 min 0 min 0 W/m 0,0 km/h (0 Bft) 100,00 %
14.09.2018 04:26 8,8 C 7,8 C 7,8 C 90 % 1019,2 hPa 0,0 l/m 0 min 0 min 0 W/m 0,0 km/h (0 Bft) 100,00 %
14.09.2018 04:28 8,7 C 7,8 C 7,8 C 90 % 1019,1 hPa 0,0 l/m 0 min 0 min 0 W/m 0,0 km/h (0 Bft) 100,00 %
14.09.2018 04:30 8,7 C 7,8 C 7,8 C 90 % 1019,0 hPa 0,0 l/m 0 min 0 min 0 W/m 0,0 km/h (0 Bft) 100,00 %
14.09.2018 04:32 8,7 C 7,8 C 7,8 C 90 % 1018,9 hPa 0,0 l/m 0 min 0 min 0 W/m 0,0 km/h (0 Bft) 100,00 %
14.09.2018 04:34 8,7 C 7,8 C 7,8 C 90 % 1018,9 hPa 0,0 l/m 0 min 0 min 0 W/m 0,0 km/h (0 Bft) 100,00 %
14.09.2018 04:36 8,7 C 7,8 C 7,8 C 90 % 1018,9 hPa 0,0 l/m 0 min 0 min 0 W/m 0,0 km/h (0 Bft) 100,00 %
14.09.2018 04:38 8,7 C 7,8 C 7,8 C 90 % 1019,0 hPa 0,0 l/m 0 min 0 min 0 W/m 0,0 km/h (0 Bft) 100,00 %
14.09.2018 04:40 8,7 C 7,8 C 7,8 C 90 % 1018,9 hPa 0,0 l/m 0 min 0 min 0 W/m 0,0 km/h (0 Bft) 100,00 %
14.09.2018 04:42 8,6 C 7,8 C 7,8 C 90 % 1018,9 hPa 0,0 l/m 0 min 0 min 0 W/m 0,0 km/h (0 Bft) 97,87 %
14.09.2018 04:44 8,6 C 7,2 C 7,8 C 90 % 1018,9 hPa 0,0 l/m 0 min 0 min 0 W/m 0,0 km/h (0 Bft) 100,00 %
14.09.2018 04:46 8,6 C 7,2 C 7,8 C 90 % 1018,9 hPa 0,0 l/m 0 min 0 min 0 W/m 0,0 km/h (0 Bft) 100,00 %
14.09.2018 04:48 8,6 C 7,2 C 7,8 C 90 % 1018,9 hPa 0,0 l/m 0 min 0 min 0 W/m 0,0 km/h (0 Bft) 100,00 %
14.09.2018 04:50 8,5 C 7,2 C 7,8 C 90 % 1018,8 hPa 0,0 l/m 0 min 0 min 0 W/m 0,0 km/h (0 Bft) 100,00 %
14.09.2018 04:52 8,5 C 7,2 C 7,8 C 90 % 1018,8 hPa 0,0 l/m 0 min 0 min 0 W/m 0,0 km/h (0 Bft) 100,00 %
14.09.2018 04:54 8,5 C 7,2 C 7,8 C 90 % 1018,8 hPa 0,0 l/m 0 min 0 min 0 W/m 0,0 km/h (0 Bft) 100,00 %
14.09.2018 04:56 8,4 C 7,2 C 7,8 C 90 % 1018,8 hPa 0,0 l/m 0 min 0 min 0 W/m 0,0 km/h (0 Bft) 97,83 %
14.09.2018 04:58 8,4 C 7,2 C 7,8 C 90 % 1018,8 hPa 0,0 l/m 0 min 0 min 0 W/m 0,0 km/h (0 Bft) 100,00 %
14.09.2018 05:00 8,4 C 7,2 C 7,2 C 90 % 1018,8 hPa 0,0 l/m 0 min 0 min 0 W/m 0,0 km/h (0 Bft) 97,87 %
14.09.2018 05:02 8,4 C 7,2 C 7,8 C 90 % 1018,8 hPa 0,0 l/m 0 min 0 min 0 W/m 0,0 km/h (0 Bft) 95,92 %
14.09.2018 05:04 8,4 C 7,2 C 7,8 C 90 % 1018,8 hPa 0,0 l/m 0 min 0 min 0 W/m 0,0 km/h (0 Bft) 95,92 %
14.09.2018 05:06 8,3 C 7,2 C 7,8 C 90 % 1018,8 hPa 0,0 l/m 0 min 0 min 0 W/m 0,0 km/h (0 Bft) 93,62 %
14.09.2018 05:08 8,3 C 7,2 C 7,8 C 90 % 1018,8 hPa 0,0 l/m 0 min 0 min 0 W/m 0,0 km/h (0 Bft) 95,74 %
14.09.2018 05:10 8,3 C 7,2 C 7,8 C 90 % 1018,8 hPa 0,0 l/m 0 min 0 min 0 W/m 0,0 km/h (0 Bft) 95,74 %
14.09.2018 05:12 8,3 C 7,2 C 7,8 C 90 % 1018,8 hPa 0,0 l/m 0 min 0 min 0 W/m 0,0 km/h (0 Bft) 95,74 %
14.09.2018 05:14 8,3 C 7,2 C 7,2 C 90 % 1018,8 hPa 0,0 l/m 0 min 0 min 0 W/m 0,0 km/h (0 Bft) 95,74 %
14.09.2018 05:16 8,2 C 7,2 C 7,8 C 90 % 1018,8 hPa 0,0 l/m 0 min 0 min 0 W/m 0,0 km/h (0 Bft) 95,65 %
14.09.2018 05:18 8,2 C 7,2 C 7,2 C 90 % 1018,8 hPa 0,0 l/m 0 min 0 min 0 W/m 0,0 km/h (0 Bft) 95,74 %
14.09.2018 05:20 8,2 C 7,2 C 7,8 C 90 % 1018,7 hPa 0,0 l/m 0 min 0 min 0 W/m 0,0 km/h (0 Bft) 93,62 %
14.09.2018 05:22 8,2 C 7,8 C 7,8 C 91 % 1018,8 hPa 0,0 l/m 0 min 0 min 0 W/m 0,0 km/h (0 Bft) 95,74 %
14.09.2018 05:24 8,2 C 7,2 C 7,8 C 91 % 1018,8 hPa 0,0 l/m 0 min 0 min 0 W/m 0,0 km/h (0 Bft) 97,14 %
14.09.2018 05:26 8,2 C 7,2 C 7,8 C 91 % 1018,8 hPa 0,0 l/m 0 min 0 min 0 W/m 0,0 km/h (0 Bft) 95,74 %
14.09.2018 05:28 8,2 C 7,2 C 7,8 C 91 % 1018,8 hPa 0,0 l/m 0 min 0 min 0 W/m 0,0 km/h (0 Bft) 95,74 %
14.09.2018 05:30 8,2 C 7,2 C 7,8 C 91 % 1018,8 hPa 0,0 l/m 0 min 0 min 0 W/m 0,0 km/h (0 Bft) 91,49 %
14.09.2018 05:32 8,1 C 7,2 C 7,2 C 91 % 1018,8 hPa 0,0 l/m 0 min 0 min 0 W/m 0,0 km/h (0 Bft) 91,67 %
14.09.2018 05:34 8,1 C 7,2 C 7,2 C 91 % 1018,8 hPa 0,0 l/m 0 min 0 min 0 W/m 0,0 km/h (0 Bft) 93,62 %
14.09.2018 05:36 8,1 C 7,2 C 7,2 C 91 % 1018,8 hPa 0,0 l/m 0 min 0 min 0 W/m 0,0 km/h (0 Bft) 92,59 %
14.09.2018 05:38 8,1 C 7,2 C 7,2 C 91 % 1018,7 hPa 0,0 l/m 0 min 0 min 0 W/m 0,0 km/h (0 Bft) 95,74 %
14.09.2018 05:40 8,1 C 7,2 C 7,2 C 91 % 1018,8 hPa 0,0 l/m 0 min 0 min 0 W/m 0,0 km/h (0 Bft) 93,62 %
14.09.2018 05:42 8,1 C 7,2 C 7,2 C 91 % 1018,8 hPa 0,0 l/m 0 min 0 min 0 W/m 0,0 km/h (0 Bft) 95,74 %
14.09.2018 05:44 8,1 C 7,2 C 7,2 C 91 % 1018,8 hPa 0,0 l/m 0 min 0 min 0 W/m 0,0 km/h (0 Bft) 91,30 %
14.09.2018 05:46 8,1 C 7,2 C 7,2 C 91 % 1018,8 hPa 0,0 l/m 0 min 0 min 0 W/m 0,0 km/h (0 Bft) 93,62 %
14.09.2018 05:48 8,1 C 7,2 C 7,2 C 91 % 1018,8 hPa 0,0 l/m 0 min 0 min 0 W/m 0,0 km/h (0 Bft) 93,62 %
14.09.2018 05:50 8,0 C 7,2 C 7,2 C 91 % 1018,8 hPa 0,0 l/m 0 min 0 min 0 W/m 0,0 km/h (0 Bft) 93,62 %
14.09.2018 05:52 8,0 C 6,7 C 7,2 C 91 % 1018,7 hPa 0,0 l/m 0 min 0 min 0 W/m 0,0 km/h (0 Bft) 91,49 %
14.09.2018 05:54 8,0 C 6,7 C 7,2 C 91 % 1018,8 hPa 0,0 l/m 0 min 0 min 0 W/m 0,0 km/h (0 Bft) 95,65 %
14.09.2018 05:56 7,9 C 6,7 C 7,2 C 91 % 1018,8 hPa 0,0 l/m 0 min 0 min 0 W/m 0,0 km/h (0 Bft) 91,49 %
14.09.2018 05:58 7,9 C 6,7 C 7,2 C 91 % 1018,8 hPa 0,0 l/m 0 min 0 min 0 W/m 0,0 km/h (0 Bft) 95,74 %
14.09.2018 06:00 7,9 C 6,7 C 7,2 C 91 % 1018,8 hPa 0,0 l/m 0 min 0 min 0 W/m 0,0 km/h (0 Bft) 95,74 %
14.09.2018 06:02 7,9 C 6,7 C 7,2 C 91 % 1018,9 hPa 0,0 l/m 0 min 0 min 0 W/m 0,0 km/h (0 Bft) 95,74 %
14.09.2018 06:04 7,9 C 6,7 C 7,2 C 91 % 1018,9 hPa 0,0 l/m 0 min 0 min 0 W/m 0,0 km/h (0 Bft) 95,74 %
14.09.2018 06:07 7,8 C 6,7 C 7,2 C 91 % 1018,9 hPa 0,0 l/m 0 min 0 min 0 W/m 0,0 km/h (0 Bft) 93,15 %
14.09.2018 06:08 7,8 C 6,7 C 7,2 C 91 % 1018,9 hPa 0,0 l/m 0 min 0 min 0 W/m 0,0 km/h (0 Bft) 95,65 %
14.09.2018 06:10 7,8 C 6,7 C 7,2 C 91 % 1018,9 hPa 0,0 l/m 0 min 0 min 0 W/m 0,0 km/h (0 Bft) 95,74 %
14.09.2018 06:12 7,8 C 6,7 C 7,2 C 91 % 1018,9 hPa 0,0 l/m 0 min 0 min 0 W/m 0,0 km/h (0 Bft) 93,62 %
14.09.2018 06:14 7,8 C 6,7 C 7,2 C 91 % 1018,9 hPa 0,0 l/m 0 min 0 min 0 W/m 0,0 km/h (0 Bft) 93,62 %
14.09.2018 06:16 7,8 C 6,7 C 6,7 C 91 % 1018,9 hPa 0,0 l/m 0 min 0 min 0 W/m 0,0 km/h (0 Bft) 97,87 %
14.09.2018 06:18 7,7 C 6,7 C 6,7 C 91 % 1018,9 hPa 0,0 l/m 0 min 0 min 0 W/m 0,0 km/h (0 Bft) 97,83 %
14.09.2018 06:20 7,7 C 6,7 C 7,2 C 91 % 1018,9 hPa 0,0 l/m 0 min 0 min 0 W/m 0,0 km/h (0 Bft) 97,87 %
14.09.2018 06:22 7,7 C 6,7 C 6,7 C 91 % 1018,9 hPa 0,0 l/m 0 min 0 min 0 W/m 0,0 km/h (0 Bft) 97,87 %
14.09.2018 06:24 7,7 C 6,7 C 6,7 C 91 % 1018,8 hPa 0,0 l/m 0 min 0 min 0 W/m 0,0 km/h (0 Bft) 95,74 %
14.09.2018 06:26 7,6 C 6,7 C 6,7 C 92 % 1018,8 hPa 0,0 l/m 0 min 0 min 0 W/m 0,0 km/h (0 Bft) 97,87 %
14.09.2018 06:28 7,6 C 6,7 C 6,7 C 92 % 1018,8 hPa 0,0 l/m 0 min 0 min 0 W/m 0,0 km/h (0 Bft) 100,00 %
14.09.2018 06:30 7,6 C 6,7 C 6,7 C 92 % 1018,8 hPa 0,0 l/m 0 min 0 min 0 W/m 0,0 km/h (0 Bft) 100,00 %
14.09.2018 06:32 7,6 C 6,7 C 7,2 C 92 % 1018,9 hPa 0,0 l/m 0 min 0 min 0 W/m 0,0 km/h (0 Bft) 100,00 %
14.09.2018 06:34 7,6 C 6,7 C 7,2 C 92 % 1018,8 hPa 0,0 l/m 0 min 0 min 0 W/m 0,0 km/h (0 Bft) 100,00 %
14.09.2018 06:36 7,5 C 6,7 C 7,2 C 92 % 1018,8 hPa 0,0 l/m 0 min 0 min 0 W/m 0,0 km/h (0 Bft) 97,37 %
14.09.2018 06:38 7,5 C 6,7 C 7,2 C 92 % 1018,7 hPa 0,0 l/m 0 min 0 min 0 W/m 0,0 km/h (0 Bft) 100,00 %
14.09.2018 06:40 7,5 C 6,7 C 7,2 C 92 % 1018,7 hPa 0,0 l/m 0 min 0 min 0 W/m 0,0 km/h (0 Bft) 100,00 %
14.09.2018 06:42 7,4 C 6,7 C 7,2 C 92 % 1018,7 hPa 0,0 l/m 0 min 0 min 0 W/m 0,0 km/h (0 Bft) 100,00 %
14.09.2018 06:44 7,4 C 6,7 C 7,2 C 92 % 1018,7 hPa 0,0 l/m 0 min 0 min 0 W/m 0,0 km/h (0 Bft) 100,00 %
14.09.2018 06:46 7,4 C 6,7 C 6,7 C 92 % 1018,7 hPa 0,0 l/m 0 min 0 min 0 W/m 0,0 km/h (0 Bft) 97,92 %
14.09.2018 06:48 7,4 C 6,7 C 6,7 C 92 % 1018,7 hPa 0,0 l/m 0 min 0 min 0 W/m 0,0 km/h (0 Bft) 100,00 %
14.09.2018 06:50 7,4 C 6,7 C 6,7 C 92 % 1018,8 hPa 0,0 l/m 0 min 0 min 0 W/m 0,0 km/h (0 Bft) 100,00 %
14.09.2018 06:52 7,4 C 6,7 C 6,7 C 92 % 1018,8 hPa 0,0 l/m 0 min 0 min 0 W/m 0,0 km/h (0 Bft) 100,00 %
14.09.2018 06:54 7,4 C 6,7 C 6,7 C 92 % 1018,8 hPa 0,0 l/m 0 min 0 min 0 W/m 0,0 km/h (0 Bft) 100,00 %
14.09.2018 06:56 7,4 C 6,7 C 6,7 C 92 % 1018,7 hPa 0,0 l/m 0 min 0 min 0 W/m 0,0 km/h (0 Bft) 97,87 %
14.09.2018 06:58 7,4 C 6,1 C 6,7 C 92 % 1018,8 hPa 0,0 l/m 0 min 0 min 0 W/m 0,0 km/h (0 Bft) 100,00 %
14.09.2018 07:00 7,4 C 6,1 C 6,7 C 92 % 1018,9 hPa 0,0 l/m 0 min 0 min 0 W/m 2,3 km/h (1 Bft) 100,00 %
14.09.2018 07:02 7,3 C 6,7 C 6,7 C 92 % 1018,8 hPa 0,0 l/m 0 min 0 min 0 W/m 0,0 km/h (0 Bft) 100,00 %
14.09.2018 07:04 7,3 C 6,1 C 6,7 C 92 % 1018,9 hPa 0,0 l/m 0 min 0 min 0 W/m 0,0 km/h (0 Bft) 100,00 %
14.09.2018 07:08 7,3 C 6,7 C 6,7 C 92 % 1018,9 hPa 0,0 l/m 0 min 0 min 4 W/m 0,0 km/h (0 Bft) 98,91 %
14.09.2018 07:10 7,3 C 6,7 C 6,7 C 92 % 1018,9 hPa 0,0 l/m 0 min 0 min 5 W/m 0,0 km/h (0 Bft) 100,00 %
14.09.2018 07:12 7,3 C 6,7 C 6,7 C 92 % 1018,9 hPa 0,0 l/m 0 min 0 min 6 W/m 0,0 km/h (0 Bft) 100,00 %
14.09.2018 07:14 7,3 C 6,7 C 6,7 C 92 % 1018,9 hPa 0,0 l/m 0 min 0 min 7 W/m 0,0 km/h (0 Bft) 100,00 %
14.09.2018 07:16 7,3 C 6,7 C 7,2 C 92 % 1018,9 hPa 0,0 l/m 0 min 0 min 7 W/m 0,0 km/h (0 Bft) 100,00 %
14.09.2018 07:18 7,3 C 6,7 C 7,2 C 92 % 1018,9 hPa 0,0 l/m 0 min 0 min 9 W/m 0,0 km/h (0 Bft) 100,00 %
14.09.2018 07:20 7,3 C 6,7 C 7,2 C 92 % 1018,9 hPa 0,0 l/m 0 min 0 min 9 W/m 0,0 km/h (0 Bft) 96,61 %
14.09.2018 07:22 7,3 C 6,7 C 7,2 C 92 % 1018,9 hPa 0,0 l/m 0 min 0 min 10 W/m 0,0 km/h (0 Bft) 100,00 %
14.09.2018 07:24 7,3 C 6,7 C 7,2 C 93 % 1018,9 hPa 0,0 l/m 0 min 0 min 11 W/m 0,0 km/h (0 Bft) 100,00 %
14.09.2018 07:26 7,2 C 6,7 C 7,2 C 93 % 1018,9 hPa 0,0 l/m 0 min 0 min 12 W/m 0,0 km/h (0 Bft) 100,00 %
14.09.2018 07:28 7,3 C 6,7 C 7,2 C 93 % 1018,9 hPa 0,0 l/m 0 min 0 min 12 W/m 0,0 km/h (0 Bft) 100,00 %
14.09.2018 07:30 7,3 C 6,7 C 6,7 C 93 % 1018,9 hPa 0,0 l/m 0 min 0 min 14 W/m 0,0 km/h (0 Bft) 100,00 %
14.09.2018 07:32 7,2 C 6,7 C 6,7 C 93 % 1019,0 hPa 0,0 l/m 0 min 0 min 14 W/m 0,0 km/h (0 Bft) 95,92 %
14.09.2018 07:34 7,2 C 7,2 C 6,7 C 93 % 1019,0 hPa 0,0 l/m 0 min 0 min 16 W/m 0,0 km/h (0 Bft) 100,00 %
14.09.2018 07:36 7,3 C 7,2 C 6,7 C 93 % 1019,0 hPa 0,0 l/m 0 min 0 min 18 W/m 0,0 km/h (0 Bft) 100,00 %
14.09.2018 07:38 7,2 C 7,2 C 7,2 C 93 % 1018,9 hPa 0,0 l/m 0 min 0 min 18 W/m 0,0 km/h (0 Bft) 97,83 %
14.09.2018 07:40 7,2 C 7,2 C 7,2 C 93 % 1019,0 hPa 0,0 l/m 0 min 0 min 19 W/m 0,0 km/h (0 Bft) 97,87 %
14.09.2018 07:42 7,3 C 7,2 C 7,2 C 93 % 1019,0 hPa 0,0 l/m 0 min 0 min 21 W/m 0,0 km/h (0 Bft) 100,00 %
14.09.2018 07:44 7,3 C 7,2 C 7,2 C 93 % 1019,0 hPa 0,0 l/m 0 min 0 min 21 W/m 0,0 km/h (0 Bft) 97,87 %
14.09.2018 07:46 7,3 C 7,2 C 7,2 C 93 % 1019,0 hPa 0,0 l/m 0 min 0 min 22 W/m 0,0 km/h (0 Bft) 97,87 %
14.09.2018 07:48 7,3 C 7,2 C 7,2 C 93 % 1019,0 hPa 0,0 l/m 0 min 0 min 23 W/m 0,0 km/h (0 Bft) 97,83 %
14.09.2018 07:50 7,3 C 7,2 C 7,2 C 93 % 1019,0 hPa 0,0 l/m 0 min 0 min 25 W/m 0,0 km/h (0 Bft) 97,87 %
14.09.2018 07:52 7,3 C 7,2 C 7,2 C 93 % 1019,1 hPa 0,0 l/m 0 min 0 min 25 W/m 0,0 km/h (0 Bft) 97,87 %
14.09.2018 07:54 7,3 C 7,2 C 7,2 C 93 % 1019,1 hPa 0,0 l/m 0 min 0 min 26 W/m 0,0 km/h (0 Bft) 97,87 %
14.09.2018 07:56 7,3 C 7,2 C 7,2 C 93 % 1019,1 hPa 0,0 l/m 0 min 0 min 27 W/m 0,0 km/h (0 Bft) 97,87 %
14.09.2018 08:00 7,3 C 7,2 C 7,2 C 94 % 1019,2 hPa 0,0 l/m 0 min 0 min 29 W/m 0,0 km/h (0 Bft) 99,12 %
14.09.2018 08:05 7,3 C 7,8 C 7,2 C 94 % 1019,2 hPa 0,0 l/m 0 min 0 min 31 W/m 0,0 km/h (0 Bft) 97,37 %
14.09.2018 08:10 7,4 C 7,8 C 7,2 C 94 % 1019,1 hPa 0,0 l/m 0 min 0 min 34 W/m 0,0 km/h (0 Bft) 96,49 %
14.09.2018 08:15 7,4 C 7,8 C 7,2 C 94 % 1019,2 hPa 0,0 l/m 0 min 0 min 36 W/m 0,0 km/h (0 Bft) 98,25 %
14.09.2018 08:20 7,5 C 7,8 C 7,8 C 94 % 1019,2 hPa 0,0 l/m 0 min 0 min 38 W/m 0,0 km/h (0 Bft) 97,37 %
14.09.2018 08:25 7,6 C 8,3 C 7,8 C 94 % 1019,1 hPa 0,0 l/m 0 min 0 min 40 W/m 0,0 km/h (0 Bft) 99,12 %
14.09.2018 08:30 7,7 C 8,3 C 7,8 C 95 % 1019,1 hPa 0,0 l/m 0 min 0 min 41 W/m 0,0 km/h (0 Bft) 100,00 %
14.09.2018 08:35 7,8 C 8,9 C 8,3 C 95 % 1019,1 hPa 0,0 l/m 0 min 0 min 42 W/m 0,0 km/h (0 Bft) 100,00 %
14.09.2018 08:40 7,9 C 8,9 C 8,3 C 95 % 1019,1 hPa 0,0 l/m 0 min 0 min 44 W/m 0,0 km/h (0 Bft) 100,00 %
14.09.2018 08:45 8,1 C 8,9 C 8,3 C 95 % 1019,1 hPa 0,0 l/m 0 min 0 min 46 W/m 0,0 km/h (0 Bft) 100,00 %
14.09.2018 08:52 8,2 C 9,4 C 8,3 C 95 % 1019,1 hPa 0,0 l/m 0 min 0 min 49 W/m 0,0 km/h (0 Bft) 97,40 %
14.09.2018 08:54 8,3 C 9,4 C 8,9 C 95 % 1019,1 hPa 0,0 l/m 0 min 0 min 51 W/m 0,0 km/h (0 Bft) 100,00 %
14.09.2018 08:56 8,3 C 9,4 C 8,9 C 96 % 1019,1 hPa 0,0 l/m 0 min 0 min 51 W/m 0,0 km/h (0 Bft) 97,87 %
14.09.2018 09:00 8,5 C 10,0 C 8,9 C 96 % 1019,1 hPa 0,0 l/m 0 min 0 min 53 W/m 0,0 km/h (0 Bft) 100,00 %
14.09.2018 09:02 8,6 C 10,0 C 8,9 C 96 % 1019,1 hPa 0,0 l/m 0 min 0 min 54 W/m 0,0 km/h (0 Bft) 100,00 %
14.09.2018 09:04 8,7 C 10,0 C 8,9 C 96 % 1019,1 hPa 0,0 l/m 0 min 0 min 54 W/m 0,0 km/h (0 Bft) 100,00 %
14.09.2018 09:06 8,7 C 10,0 C 9,4 C 96 % 1019,1 hPa 0,0 l/m 0 min 0 min 54 W/m 0,0 km/h (0 Bft) 97,87 %
14.09.2018 09:08 8,7 C 10,6 C 9,4 C 96 % 1019,1 hPa 0,0 l/m 0 min 0 min 55 W/m 2,3 km/h (1 Bft) 100,00 %
14.09.2018 09:10 8,8 C 10,6 C 9,4 C 96 % 1019,1 hPa 0,0 l/m 0 min 0 min 56 W/m 2,3 km/h (1 Bft) 100,00 %
14.09.2018 09:12 8,9 C 10,6 C 9,4 C 96 % 1019,1 hPa 0,0 l/m 0 min 0 min 57 W/m 0,0 km/h (0 Bft) 97,87 %
14.09.2018 09:14 9,0 C 10,6 C 9,4 C 96 % 1019,1 hPa 0,0 l/m 0 min 0 min 58 W/m 0,0 km/h (0 Bft) 100,00 %
14.09.2018 09:16 9,1 C 10,6 C 10,0 C 96 % 1019,1 hPa 0,0 l/m 0 min 0 min 58 W/m 2,3 km/h (1 Bft) 95,74 %
14.09.2018 09:18 9,2 C 11,1 C 10,0 C 96 % 1019,2 hPa 0,0 l/m 0 min 0 min 60 W/m 0,0 km/h (0 Bft) 97,87 %
14.09.2018 09:20 9,2 C 11,1 C 10,6 C 97 % 1019,2 hPa 0,0 l/m 0 min 0 min 62 W/m 2,3 km/h (1 Bft) 100,00 %
14.09.2018 09:22 9,3 C 11,1 C 10,6 C 97 % 1019,2 hPa 0,0 l/m 0 min 0 min 62 W/m 2,3 km/h (1 Bft) 100,00 %
14.09.2018 09:24 9,4 C 11,7 C 10,6 C 97 % 1019,2 hPa 0,0 l/m 0 min 0 min 63 W/m 0,0 km/h (0 Bft) 97,87 %
14.09.2018 09:26 9,4 C 11,7 C 10,6 C 97 % 1019,3 hPa 0,0 l/m 0 min 0 min 63 W/m 2,3 km/h (1 Bft) 95,65 %
14.09.2018 09:28 9,6 C 11,7 C 10,6 C 97 % 1019,3 hPa 0,0 l/m 0 min 0 min 64 W/m 2,3 km/h (1 Bft) 97,87 %
14.09.2018 09:30 9,6 C 11,7 C 10,6 C 97 % 1019,3 hPa 0,0 l/m 0 min 0 min 65 W/m 2,3 km/h (1 Bft) 97,87 %
14.09.2018 09:32 9,7 C 12,2 C 10,6 C 97 % 1019,4 hPa 0,0 l/m 0 min 0 min 69 W/m 0,0 km/h (0 Bft) 95,74 %
14.09.2018 09:34 9,8 C 12,2 C 10,6 C 97 % 1019,4 hPa 0,0 l/m 0 min 0 min 163 W/m 2,3 km/h (1 Bft) 97,87 %
14.09.2018 09:36 9,9 C 12,2 C 11,1 C 97 % 1019,3 hPa 0,0 l/m 2 min 0 min 228 W/m 2,3 km/h (1 Bft) 98,11 %
14.09.2018 09:38 10,0 C 12,2 C 11,1 C 97 % 1019,4 hPa 0,0 l/m 2 min 0 min 248 W/m 2,3 km/h (1 Bft) 93,48 %
14.09.2018 09:40 10,1 C 12,2 C 11,1 C 97 % 1019,3 hPa 0,0 l/m 2 min 0 min 253 W/m 2,3 km/h (1 Bft) 97,87 %
14.09.2018 09:42 10,2 C 12,8 C 11,7 C 97 % 1019,3 hPa 0,0 l/m 2 min 0 min 259 W/m 2,3 km/h (1 Bft) 97,87 %
14.09.2018 09:44 10,3 C 12,8 C 11,7 C 97 % 1019,3 hPa 0,0 l/m 2 min 0 min 264 W/m 0,0 km/h (0 Bft) 97,87 %
14.09.2018 09:46 10,4 C 12,8 C 11,7 C 97 % 1019,3 hPa 0,0 l/m 2 min 0 min 270 W/m 0,0 km/h (0 Bft) 93,62 %
14.09.2018 09:48 10,4 C 12,8 C 11,7 C 97 % 1019,3 hPa 0,0 l/m 2 min 0 min 275 W/m 2,3 km/h (1 Bft) 97,87 %
14.09.2018 09:50 10,6 C 13,3 C 11,7 C 97 % 1019,4 hPa 0,0 l/m 2 min 0 min 278 W/m 0,0 km/h (0 Bft) 97,83 %
14.09.2018 09:52 10,6 C 13,3 C 11,1 C 97 % 1019,3 hPa 0,0 l/m 2 min 0 min 284 W/m 0,0 km/h (0 Bft) 97,87 %
14.09.2018 09:54 10,7 C 13,9 C 11,7 C 97 % 1019,4 hPa 0,0 l/m 2 min 0 min 289 W/m 0,0 km/h (0 Bft) 97,87 %
14.09.2018 09:56 10,8 C 14,4 C 11,7 C 97 % 1019,4 hPa 0,0 l/m 2 min 0 min 296 W/m 0,0 km/h (0 Bft) 93,62 %
14.09.2018 09:58 10,8 C 16,7 C 11,7 C 97 % 1019,4 hPa 0,0 l/m 2 min 0 min 299 W/m 2,3 km/h (1 Bft) 97,87 %
14.09.2018 10:00 10,9 C 16,7 C 11,7 C 97 % 1019,4 hPa 0,0 l/m 2 min 0 min 304 W/m 2,3 km/h (1 Bft) 97,87 %
14.09.2018 10:02 11,0 C 17,2 C 11,7 C 97 % 1019,4 hPa 0,0 l/m 2 min 0 min 308 W/m 2,3 km/h (1 Bft) 97,83 %
14.09.2018 10:04 11,1 C 16,7 C 11,7 C 97 % 1019,4 hPa 0,0 l/m 2 min 0 min 313 W/m 2,3 km/h (1 Bft) 95,74 %
14.09.2018 10:06 11,2 C 16,7 C 11,7 C 97 % 1019,4 hPa 0,0 l/m 2 min 0 min 318 W/m 2,3 km/h (1 Bft) 95,74 %
14.09.2018 10:08 11,3 C 15,6 C 12,2 C 97 % 1019,4 hPa 0,0 l/m 2 min 0 min 326 W/m 2,3 km/h (1 Bft) 95,74 %
14.09.2018 10:10 11,4 C 15,0 C 12,2 C 97 % 1019,4 hPa 0,0 l/m 2 min 0 min 330 W/m 2,3 km/h (1 Bft) 95,74 %
14.09.2018 10:12 11,5 C 15,6 C 12,2 C 97 % 1019,4 hPa 0,0 l/m 2 min 0 min 338 W/m 0,0 km/h (0 Bft) 91,49 %
14.09.2018 10:14 11,6 C 16,1 C 12,2 C 98 % 1019,4 hPa 0,0 l/m 2 min 0 min 343 W/m 2,3 km/h (1 Bft) 95,65 %
14.09.2018 10:16 11,7 C 17,2 C 12,8 C 98 % 1019,4 hPa 0,0 l/m 2 min 0 min 349 W/m 2,3 km/h (1 Bft) 97,87 %
14.09.2018 10:18 11,8 C 18,3 C 12,8 C 97 % 1019,4 hPa 0,0 l/m 2 min 0 min 349 W/m 2,3 km/h (1 Bft) 97,87 %
14.09.2018 10:20 11,9 C 18,3 C 12,8 C 98 % 1019,4 hPa 0,0 l/m 2 min 0 min 358 W/m 4,5 km/h (1 Bft) 95,74 %
14.09.2018 10:22 12,1 C 17,8 C 12,8 C 98 % 1019,4 hPa 0,0 l/m 2 min 0 min 364 W/m 2,3 km/h (1 Bft) 95,74 %
14.09.2018 10:24 12,2 C 17,2 C 12,8 C 97 % 1019,4 hPa 0,0 l/m 2 min 0 min 368 W/m 4,5 km/h (1 Bft) 97,87 %
14.09.2018 10:26 12,3 C 18,9 C 12,8 C 98 % 1019,5 hPa 0,0 l/m 2 min 0 min 373 W/m 2,3 km/h (1 Bft) 97,83 %
14.09.2018 10:28 12,4 C 20,6 C 12,8 C 98 % 1019,4 hPa 0,0 l/m 2 min 0 min 375 W/m 2,3 km/h (1 Bft) 93,62 %
14.09.2018 10:30 12,6 C 21,7 C 12,8 C 98 % 1019,5 hPa 0,0 l/m 2 min 0 min 358 W/m 4,5 km/h (1 Bft) 93,62 %
14.09.2018 10:32 12,7 C 21,7 C 12,8 C 97 % 1019,5 hPa 0,0 l/m 2 min 0 min 290 W/m 2,3 km/h (1 Bft) 93,62 %
14.09.2018 10:34 12,8 C 22,2 C 12,8 C 97 % 1019,5 hPa 0,0 l/m 2 min 0 min 368 W/m 4,5 km/h (1 Bft) 95,74 %
14.09.2018 10:36 13,0 C 22,2 C 13,3 C 97 % 1019,4 hPa 0,0 l/m 2 min 0 min 259 W/m 2,3 km/h (1 Bft) 95,74 %
14.09.2018 10:38 13,1 C 23,3 C 13,3 C 97 % 1019,5 hPa 0,0 l/m 0 min 0 min 228 W/m 2,3 km/h (1 Bft) 95,74 %
14.09.2018 10:40 13,3 C 23,9 C 13,3 C 97 % 1019,5 hPa 0,0 l/m 0 min 0 min 160 W/m 0,0 km/h (0 Bft) 93,62 %
14.09.2018 10:42 13,4 C 23,3 C 13,3 C 97 % 1019,5 hPa 0,0 l/m 0 min 0 min 181 W/m 2,3 km/h (1 Bft) 95,74 %
14.09.2018 10:44 13,6 C 22,8 C 13,3 C 97 % 1019,5 hPa 0,0 l/m 0 min 0 min 196 W/m 4,5 km/h (1 Bft) 93,62 %
14.09.2018 10:46 13,8 C 22,8 C 13,3 C 96 % 1019,5 hPa 0,0 l/m 0 min 0 min 189 W/m 2,3 km/h (1 Bft) 93,62 %
14.09.2018 10:48 13,9 C 22,2 C 13,3 C 96 % 1019,5 hPa 0,0 l/m 0 min 0 min 227 W/m 2,3 km/h (1 Bft) 95,65 %
14.09.2018 10:50 14,2 C 22,8 C 13,9 C 95 % 1019,5 hPa 0,0 l/m 2 min 0 min 399 W/m 0,0 km/h (0 Bft) 95,74 %
14.09.2018 10:52 14,2 C 23,3 C 13,9 C 94 % 1019,5 hPa 0,0 l/m 2 min 0 min 303 W/m 2,3 km/h (1 Bft) 95,74 %
14.09.2018 10:54 14,5 C 23,3 C 13,9 C 93 % 1019,5 hPa 0,0 l/m 0 min 0 min 249 W/m 2,3 km/h (1 Bft) 95,74 %
14.09.2018 10:56 14,7 C 24,4 C 13,9 C 92 % 1019,5 hPa 0,0 l/m 2 min 0 min 367 W/m 2,3 km/h (1 Bft) 93,62 %
14.09.2018 10:58 14,9 C 24,4 C 13,9 C 91 % 1019,5 hPa 0,0 l/m 2 min 0 min 445 W/m 2,3 km/h (1 Bft) 95,74 %
14.09.2018 11:00 15,2 C 22,8 C 13,9 C 89 % 1019,5 hPa 0,0 l/m 2 min 0 min 449 W/m 2,3 km/h (1 Bft) 95,65 %
14.09.2018 11:02 15,4 C 23,3 C 13,9 C 88 % 1019,5 hPa 0,0 l/m 2 min 0 min 453 W/m 4,5 km/h (1 Bft) 95,74 %
14.09.2018 11:04 15,6 C 23,9 C 13,9 C 87 % 1019,5 hPa 0,0 l/m 2 min 0 min 458 W/m 2,3 km/h (1 Bft) 97,87 %
14.09.2018 11:06 15,8 C 23,3 C 13,9 C 85 % 1019,6 hPa 0,0 l/m 2 min 0 min 461 W/m 2,3 km/h (1 Bft) 97,92 %
14.09.2018 11:08 16,1 C 23,9 C 14,4 C 84 % 1019,6 hPa 0,0 l/m 2 min 0 min 465 W/m 4,5 km/h (1 Bft) 97,87 %
14.09.2018 11:10 16,3 C 23,9 C 14,4 C 83 % 1019,5 hPa 0,0 l/m 2 min 0 min 467 W/m 4,5 km/h (1 Bft) 95,74 %
14.09.2018 11:12 16,4 C 24,4 C 14,4 C 81 % 1019,6 hPa 0,0 l/m 2 min 0 min 469 W/m 4,5 km/h (1 Bft) 97,83 %
14.09.2018 11:14 16,7 C 24,4 C 14,4 C 80 % 1019,5 hPa 0,0 l/m 2 min 0 min 475 W/m 2,3 km/h (1 Bft) 95,74 %
14.09.2018 11:16 16,8 C 24,4 C 14,4 C 79 % 1019,6 hPa 0,0 l/m 2 min 0 min 478 W/m 2,3 km/h (1 Bft) 95,74 %
14.09.2018 11:18 16,9 C 23,3 C 14,4 C 78 % 1019,6 hPa 0,0 l/m 2 min 0 min 482 W/m 4,5 km/h (1 Bft) 97,87 %
14.09.2018 11:20 17,1 C 23,3 C 15,0 C 77 % 1019,5 hPa 0,0 l/m 2 min 0 min 486 W/m 4,5 km/h (1 Bft) 97,87 %
14.09.2018 11:22 17,3 C 25,0 C 15,0 C 77 % 1019,6 hPa 0,0 l/m 2 min 0 min 489 W/m 6,8 km/h (2 Bft) 97,96 %
14.09.2018 11:24 17,4 C 25,0 C 15,0 C 76 % 1019,6 hPa 0,0 l/m 2 min 0 min 497 W/m 4,5 km/h (1 Bft) 97,87 %
14.09.2018 11:26 17,6 C 25,6 C 15,0 C 75 % 1019,6 hPa 0,0 l/m 2 min 0 min 497 W/m 4,5 km/h (1 Bft) 97,87 %
14.09.2018 11:28 17,7 C 26,7 C 15,0 C 75 % 1019,6 hPa 0,0 l/m 2 min 0 min 498 W/m 6,8 km/h (2 Bft) 97,14 %
14.09.2018 11:30 17,9 C 25,6 C 15,0 C 73 % 1019,5 hPa 0,0 l/m 2 min 0 min 505 W/m 4,5 km/h (1 Bft) 98,31 %
14.09.2018 11:32 18,0 C 26,1 C 15,0 C 72 % 1019,5 hPa 0,0 l/m 2 min 0 min 512 W/m 4,5 km/h (1 Bft) 97,14 %
14.09.2018 11:34 18,1 C 25,0 C 15,6 C 72 % 1019,5 hPa 0,0 l/m 2 min 0 min 517 W/m 6,8 km/h (2 Bft) 98,28 %
14.09.2018 11:36 18,2 C 25,6 C 15,6 C 71 % 1019,5 hPa 0,0 l/m 2 min 0 min 519 W/m 4,5 km/h (1 Bft) 97,30 %
14.09.2018 11:38 18,3 C 25,0 C 15,6 C 70 % 1019,6 hPa 0,0 l/m 2 min 0 min 519 W/m 4,5 km/h (1 Bft) 97,83 %
14.09.2018 11:40 18,5 C 26,1 C 15,6 C 70 % 1019,5 hPa 0,0 l/m 2 min 0 min 338 W/m 6,8 km/h (2 Bft) 97,87 %
14.09.2018 11:42 18,6 C 26,7 C 15,6 C 70 % 1019,5 hPa 0,0 l/m 0 min 0 min 252 W/m 6,8 km/h (2 Bft) 97,87 %
14.09.2018 11:44 18,7 C 25,0 C 15,6 C 69 % 1019,5 hPa 0,0 l/m 0 min 0 min 186 W/m 4,5 km/h (1 Bft) 95,74 %
14.09.2018 11:46 18,8 C 25,0 C 15,6 C 67 % 1019,5 hPa 0,0 l/m 0 min 0 min 154 W/m 4,5 km/h (1 Bft) 97,87 %
14.09.2018 11:48 18,9 C 24,4 C 15,6 C 68 % 1019,5 hPa 0,0 l/m 0 min 0 min 111 W/m 6,8 km/h (2 Bft) 97,87 %
14.09.2018 11:50 19,0 C 25,0 C 15,6 C 67 % 1019,5 hPa 0,0 l/m 0 min 0 min 184 W/m 6,8 km/h (2 Bft) 93,62 %
14.09.2018 11:52 19,1 C 26,1 C 15,6 C 68 % 1019,5 hPa 0,0 l/m 0 min 0 min 140 W/m 4,5 km/h (1 Bft) 95,74 %
14.09.2018 11:54 19,2 C 25,0 C 15,6 C 66 % 1019,4 hPa 0,0 l/m 0 min 0 min 124 W/m 6,8 km/h (2 Bft) 95,74 %
14.09.2018 11:56 19,2 C 25,6 C 16,1 C 66 % 1019,4 hPa 0,0 l/m 0 min 0 min 185 W/m 6,8 km/h (2 Bft) 95,65 %
14.09.2018 11:58 19,3 C 25,0 C 16,1 C 66 % 1019,5 hPa 0,0 l/m 2 min 0 min 348 W/m 4,5 km/h (1 Bft) 97,87 %
14.09.2018 12:00 19,3 C 25,0 C 16,1 C 65 % 1019,3 hPa 0,0 l/m 0 min 0 min 254 W/m 4,5 km/h (1 Bft) 97,87 %
14.09.2018 12:02 19,4 C 24,4 C 16,1 C 64 % 1019,2 hPa 0,0 l/m 0 min 0 min 202 W/m 2,3 km/h (1 Bft) 97,87 %
14.09.2018 12:04 19,4 C 25,0 C 16,1 C 65 % 1019,3 hPa 0,0 l/m 0 min 0 min 130 W/m 6,8 km/h (2 Bft) 97,87 %
14.09.2018 12:06 19,5 C 25,6 C 16,1 C 65 % 1019,3 hPa 0,0 l/m 0 min 0 min 115 W/m 4,5 km/h (1 Bft) 97,87 %
14.09.2018 12:08 19,5 C 25,0 C 16,1 C 65 % 1019,3 hPa 0,0 l/m 0 min 0 min 117 W/m 6,8 km/h (2 Bft) 97,83 %
14.09.2018 12:10 19,6 C 25,0 C 16,1 C 64 % 1019,3 hPa 0,0 l/m 0 min 0 min 153 W/m 6,8 km/h (2 Bft) 97,87 %
14.09.2018 12:12 19,6 C 25,0 C 16,1 C 64 % 1019,3 hPa 0,0 l/m 0 min 0 min 111 W/m 6,8 km/h (2 Bft) 97,87 %
14.09.2018 12:14 19,6 C 25,6 C 16,7 C 64 % 1019,3 hPa 0,0 l/m 0 min 0 min 137 W/m 9,0 km/h (2 Bft) 97,87 %
14.09.2018 12:16 19,7 C 26,1 C 16,7 C 65 % 1019,3 hPa 0,0 l/m 0 min 0 min 105 W/m 4,5 km/h (1 Bft) 97,87 %
14.09.2018 12:18 19,7 C 26,1 C 16,7 C 64 % 1019,3 hPa 0,0 l/m 0 min 0 min 110 W/m 6,8 km/h (2 Bft) 100,00 %
14.09.2018 12:20 19,7 C 22,8 C 16,1 C 63 % 1019,3 hPa 0,0 l/m 0 min 0 min 112 W/m 4,5 km/h (1 Bft) 97,83 %
14.09.2018 12:22 19,7 C 22,2 C 16,1 C 63 % 1019,3 hPa 0,0 l/m 0 min 0 min 109 W/m 2,3 km/h (1 Bft) 97,87 %
14.09.2018 12:24 19,7 C 21,1 C 16,1 C 63 % 1019,2 hPa 0,0 l/m 0 min 0 min 108 W/m 2,3 km/h (1 Bft) 95,74 %
14.09.2018 12:26 19,6 C 20,0 C 16,1 C 62 % 1019,3 hPa 0,0 l/m 0 min 0 min 128 W/m 9,0 km/h (2 Bft) 97,87 %
14.09.2018 12:28 19,6 C 22,2 C 16,1 C 63 % 1019,3 hPa 0,0 l/m 0 min 0 min 162 W/m 4,5 km/h (1 Bft) 97,87 %
14.09.2018 12:30 19,6 C 22,2 C 16,1 C 63 % 1019,2 hPa 0,0 l/m 0 min 0 min 152 W/m 4,5 km/h (1 Bft) 97,87 %
14.09.2018 12:32 19,6 C 25,0 C 16,7 C 63 % 1019,2 hPa 0,0 l/m 0 min 0 min 231 W/m 4,5 km/h (1 Bft) 97,83 %
14.09.2018 12:34 19,6 C 27,2 C 16,7 C 64 % 1019,2 hPa 0,0 l/m 0 min 0 min 228 W/m 4,5 km/h (1 Bft) 97,87 %
14.09.2018 12:36 19,6 C 25,0 C 16,7 C 63 % 1019,2 hPa 0,0 l/m 0 min 0 min 220 W/m 4,5 km/h (1 Bft) 96,23 %
14.09.2018 12:38 19,7 C 25,0 C 17,2 C 62 % 1019,2 hPa 0,0 l/m 0 min 0 min 268 W/m 6,8 km/h (2 Bft) 95,74 %
14.09.2018 12:40 19,7 C 25,0 C 17,2 C 62 % 1019,2 hPa 0,0 l/m 0 min 0 min 241 W/m 6,8 km/h (2 Bft) 95,74 %
14.09.2018 12:42 19,8 C 26,7 C 17,2 C 62 % 1019,2 hPa 0,0 l/m 0 min 0 min 220 W/m 6,8 km/h (2 Bft) 97,87 %
14.09.2018 12:44 19,9 C 26,1 C 17,2 C 62 % 1019,1 hPa 0,0 l/m 0 min 0 min 208 W/m 4,5 km/h (1 Bft) 97,87 %
14.09.2018 12:46 19,9 C 24,4 C 17,2 C 63 % 1019,2 hPa 0,0 l/m 0 min 0 min 187 W/m 6,8 km/h (2 Bft) 95,65 %
14.09.2018 12:48 20,0 C 25,0 C 17,8 C 60 % 1019,0 hPa 0,0 l/m 0 min 0 min 194 W/m 6,8 km/h (2 Bft) 97,87 %
14.09.2018 12:50 20,1 C 26,1 C 17,8 C 60 % 1019,0 hPa 0,0 l/m 0 min 0 min 269 W/m 6,8 km/h (2 Bft) 97,87 %
14.09.2018 12:52 20,2 C 24,4 C 17,8 C 60 % 1019,0 hPa 0,0 l/m 2 min 0 min 358 W/m 4,5 km/h (1 Bft) 97,92 %
14.09.2018 12:54 20,2 C 23,9 C 17,8 C 59 % 1018,9 hPa 0,0 l/m 0 min 0 min 209 W/m 9,0 km/h (2 Bft) 97,87 %
14.09.2018 12:56 20,3 C 24,4 C 17,8 C 59 % 1018,9 hPa 0,0 l/m 0 min 0 min 233 W/m 6,8 km/h (2 Bft) 95,65 %
14.09.2018 12:58 20,3 C 23,3 C 17,8 C 59 % 1019,0 hPa 0,0 l/m 0 min 0 min 211 W/m 6,8 km/h (2 Bft) 97,87 %
14.09.2018 13:00 20,4 C 22,2 C 18,3 C 58 % 1018,9 hPa 0,0 l/m 0 min 0 min 205 W/m 9,0 km/h (2 Bft) 97,87 %
14.09.2018 13:02 20,4 C 21,7 C 17,8 C 58 % 1019,0 hPa 0,0 l/m 0 min 0 min 213 W/m 6,8 km/h (2 Bft) 95,74 %
14.09.2018 13:04 20,5 C 21,1 C 17,8 C 57 % 1019,0 hPa 0,0 l/m 0 min 0 min 232 W/m 6,8 km/h (2 Bft) 95,74 %
14.09.2018 13:06 20,5 C 21,7 C 17,8 C 58 % 1019,0 hPa 0,0 l/m 0 min 0 min 203 W/m 4,5 km/h (1 Bft) 97,92 %
14.09.2018 13:08 20,6 C 21,7 C 17,8 C 58 % 1018,8 hPa 0,0 l/m 0 min 0 min 233 W/m 6,8 km/h (2 Bft) 97,83 %
14.09.2018 13:10 20,6 C 21,7 C 17,8 C 59 % 1018,8 hPa 0,0 l/m 2 min 0 min 335 W/m 6,8 km/h (2 Bft) 97,87 %
14.09.2018 13:12 20,7 C 20,6 C 17,8 C 58 % 1018,9 hPa 0,0 l/m 2 min 0 min 352 W/m 6,8 km/h (2 Bft) 97,87 %
14.09.2018 13:14 20,7 C 20,6 C 17,8 C 57 % 1018,9 hPa 0,0 l/m 2 min 0 min 352 W/m 9,0 km/h (2 Bft) 97,87 %
14.09.2018 13:16 20,6 C 20,0 C 17,8 C 57 % 1018,7 hPa 0,0 l/m 2 min 0 min 352 W/m 6,8 km/h (2 Bft) 97,87 %
14.09.2018 13:18 20,6 C 19,4 C 17,2 C 57 % 1018,7 hPa 0,0 l/m 0 min 0 min 246 W/m 6,8 km/h (2 Bft) 97,87 %
14.09.2018 13:20 20,5 C 20,0 C 17,2 C 57 % 1018,7 hPa 0,0 l/m 0 min 0 min 284 W/m 6,8 km/h (2 Bft) 97,83 %
14.09.2018 13:22 20,4 C 19,4 C 17,2 C 57 % 1018,7 hPa 0,0 l/m 0 min 0 min 301 W/m 9,0 km/h (2 Bft) 97,92 %
14.09.2018 13:24 20,4 C 20,0 C 17,2 C 58 % 1018,8 hPa 0,0 l/m 0 min 0 min 187 W/m 9,0 km/h (2 Bft) 97,37 %
14.09.2018 13:26 20,3 C 20,0 C 17,8 C 57 % 1018,7 hPa 0,0 l/m 2 min 0 min 543 W/m 6,8 km/h (2 Bft) 100,00 %
14.09.2018 13:28 20,3 C 20,0 C 17,8 C 57 % 1018,6 hPa 0,0 l/m 2 min 0 min 664 W/m 4,5 km/h (1 Bft) 100,00 %
14.09.2018 13:30 20,3 C 20,6 C 17,8 C 58 % 1018,6 hPa 0,0 l/m 2 min 0 min 710 W/m 6,8 km/h (2 Bft) 100,00 %
14.09.2018 13:32 20,3 C 21,1 C 18,3 C 59 % 1018,7 hPa 0,0 l/m 2 min 0 min 732 W/m 6,8 km/h (2 Bft) 100,00 %
14.09.2018 13:34 20,3 C 20,6 C 18,3 C 59 % 1018,6 hPa 0,0 l/m 2 min 0 min 547 W/m 6,8 km/h (2 Bft) 97,87 %
14.09.2018 13:36 20,3 C 20,0 C 17,8 C 57 % 1018,6 hPa 0,0 l/m 0 min 0 min 242 W/m 6,8 km/h (2 Bft) 100,00 %
14.09.2018 13:38 20,3 C 20,6 C 17,8 C 58 % 1018,5 hPa 0,0 l/m 2 min 0 min 613 W/m 4,5 km/h (1 Bft) 100,00 %
14.09.2018 13:40 20,3 C 20,6 C 18,3 C 57 % 1018,6 hPa 0,0 l/m 2 min 0 min 725 W/m 9,0 km/h (2 Bft) 100,00 %
14.09.2018 13:42 20,3 C 20,6 C 18,3 C 57 % 1018,6 hPa 0,0 l/m 2 min 0 min 695 W/m 6,8 km/h (2 Bft) 100,00 %
14.09.2018 13:44 20,3 C 20,6 C 18,9 C 57 % 1018,5 hPa 0,0 l/m 2 min 0 min 696 W/m 13,5 km/h (3 Bft) 100,00 %
14.09.2018 13:46 20,3 C 20,0 C 18,3 C 57 % 1018,5 hPa 0,0 l/m 0 min 0 min 251 W/m 11,3 km/h (2 Bft) 100,00 %
14.09.2018 13:48 20,3 C 20,0 C 18,3 C 57 % 1018,5 hPa 0,0 l/m 0 min 0 min 282 W/m 6,8 km/h (2 Bft) 100,00 %
14.09.2018 13:50 20,3 C 20,6 C 18,3 C 59 % 1018,4 hPa 0,0 l/m 2 min 0 min 695 W/m 0,0 km/h (0 Bft) 100,00 %
14.09.2018 13:52 20,3 C 20,6 C 18,3 C 59 % 1018,4 hPa 0,0 l/m 2 min 0 min 429 W/m 6,8 km/h (2 Bft) 100,00 %
14.09.2018 13:54 20,3 C 20,0 C 18,3 C 58 % 1018,4 hPa 0,0 l/m 0 min 0 min 266 W/m 6,8 km/h (2 Bft) 100,00 %
14.09.2018 13:56 20,3 C 20,0 C 18,3 C 57 % 1018,4 hPa 0,0 l/m 2 min 0 min 682 W/m 6,8 km/h (2 Bft) 100,00 %
14.09.2018 13:58 20,2 C 19,4 C 17,8 C 57 % 1018,4 hPa 0,0 l/m 2 min 0 min 655 W/m 9,0 km/h (2 Bft) 100,00 %
14.09.2018 14:00 20,2 C 20,0 C 17,8 C 57 % 1018,4 hPa 0,0 l/m 2 min 0 min 341 W/m 9,0 km/h (2 Bft) 100,00 %
14.09.2018 14:02 20,2 C 20,6 C 17,8 C 58 % 1018,3 hPa 0,0 l/m 2 min 0 min 708 W/m 6,8 km/h (2 Bft) 100,00 %
14.09.2018 14:04 20,2 C 20,6 C 18,3 C 59 % 1018,4 hPa 0,0 l/m 2 min 0 min 673 W/m 6,8 km/h (2 Bft) 100,00 %
14.09.2018 14:06 20,2 C 20,6 C 18,3 C 58 % 1018,2 hPa 0,0 l/m 2 min 0 min 705 W/m 9,0 km/h (2 Bft) 97,83 %
14.09.2018 14:08 20,2 C 20,6 C 18,3 C 58 % 1018,3 hPa 0,0 l/m 2 min 0 min 709 W/m 15,8 km/h (3 Bft) 100,00 %
14.09.2018 14:10 20,2 C 20,6 C 18,3 C 58 % 1018,3 hPa 0,0 l/m 2 min 0 min 710 W/m 9,0 km/h (2 Bft) 100,00 %
14.09.2018 14:12 20,2 C 20,6 C 18,3 C 59 % 1018,2 hPa 0,0 l/m 2 min 0 min 721 W/m 4,5 km/h (1 Bft) 97,87 %
14.09.2018 14:14 20,2 C 21,1 C 18,3 C 59 % 1018,3 hPa 0,0 l/m 2 min 0 min 720 W/m 6,8 km/h (2 Bft) 100,00 %
14.09.2018 14:16 20,3 C 21,1 C 18,9 C 59 % 1018,2 hPa 0,0 l/m 2 min 0 min 755 W/m 4,5 km/h (1 Bft) 100,00 %
14.09.2018 14:18 20,3 C 21,1 C 18,9 C 59 % 1018,2 hPa 0,0 l/m 2 min 0 min 770 W/m 6,8 km/h (2 Bft) 100,00 %
14.09.2018 14:20 20,4 C 21,1 C 18,9 C 58 % 1018,2 hPa 0,0 l/m 2 min 0 min 753 W/m 20,3 km/h (4 Bft) 100,00 %
14.09.2018 14:22 20,4 C 21,1 C 18,9 C 56 % 1018,3 hPa 0,0 l/m 2 min 0 min 671 W/m 11,3 km/h (2 Bft) 97,87 %
14.09.2018 14:24 20,5 C 21,1 C 19,4 C 56 % 1018,3 hPa 0,0 l/m 2 min 0 min 585 W/m 13,5 km/h (3 Bft) 100,00 %
14.09.2018 14:26 20,6 C 20,6 C 18,9 C 56 % 1018,3 hPa 0,0 l/m 2 min 0 min 386 W/m 13,5 km/h (3 Bft) 100,00 %
14.09.2018 14:28 20,6 C 20,6 C 18,9 C 56 % 1018,3 hPa 0,0 l/m 0 min 0 min 264 W/m 9,0 km/h (2 Bft) 97,87 %
14.09.2018 14:30 20,6 C 20,6 C 18,9 C 56 % 1018,2 hPa 0,0 l/m 0 min 0 min 269 W/m 11,3 km/h (2 Bft) 100,00 %
14.09.2018 14:32 20,6 C 20,6 C 18,9 C 56 % 1018,2 hPa 0,0 l/m 2 min 0 min 646 W/m 6,8 km/h (2 Bft) 97,87 %
14.09.2018 14:34 20,6 C 20,6 C 18,9 C 57 % 1018,2 hPa 0,0 l/m 2 min 0 min 721 W/m 6,8 km/h (2 Bft) 100,00 %
14.09.2018 14:36 20,6 C 20,6 C 18,9 C 56 % 1018,3 hPa 0,0 l/m 2 min 0 min 721 W/m 6,8 km/h (2 Bft) 95,74 %
14.09.2018 14:38 20,6 C 20,0 C 18,3 C 56 % 1018,2 hPa 0,0 l/m 0 min 0 min 308 W/m 6,8 km/h (2 Bft) 100,00 %
14.09.2018 14:40 20,6 C 20,0 C 18,3 C 56 % 1018,3 hPa 0,0 l/m 2 min 0 min 350 W/m 4,5 km/h (1 Bft) 100,00 %
14.09.2018 14:42 20,6 C 20,0 C 18,3 C 55 % 1018,2 hPa 0,0 l/m 2 min 0 min 573 W/m 13,5 km/h (3 Bft) 100,00 %
14.09.2018 14:44 20,5 C 20,0 C 18,3 C 56 % 1018,3 hPa 0,0 l/m 2 min 0 min 434 W/m 6,8 km/h (2 Bft) 97,87 %
14.09.2018 14:46 20,4 C 20,0 C 18,3 C 56 % 1018,2 hPa 0,0 l/m 0 min 0 min 195 W/m 4,5 km/h (1 Bft) 97,87 %
14.09.2018 14:48 20,4 C 20,0 C 18,3 C 56 % 1018,2 hPa 0,0 l/m 0 min 0 min 210 W/m 11,3 km/h (2 Bft) 100,00 %
14.09.2018 14:50 20,4 C 20,0 C 18,3 C 56 % 1018,2 hPa 0,0 l/m 2 min 0 min 609 W/m 6,8 km/h (2 Bft) 97,87 %
14.09.2018 14:52 20,4 C 20,6 C 18,3 C 57 % 1018,2 hPa 0,0 l/m 2 min 0 min 646 W/m 6,8 km/h (2 Bft) 97,83 %
14.09.2018 14:54 20,4 C 20,6 C 18,3 C 55 % 1018,2 hPa 0,0 l/m 2 min 0 min 621 W/m 13,5 km/h (3 Bft) 97,87 %
14.09.2018 14:56 20,3 C 20,6 C 18,3 C 55 % 1018,2 hPa 0,0 l/m 2 min 0 min 632 W/m 9,0 km/h (2 Bft) 97,87 %
14.09.2018 14:58 20,4 C 20,6 C 18,3 C 56 % 1018,1 hPa 0,0 l/m 2 min 0 min 633 W/m 4,5 km/h (1 Bft) 97,87 %
14.09.2018 15:00 20,3 C 20,6 C 18,3 C 54 % 1018,0 hPa 0,0 l/m 2 min 0 min 631 W/m 15,8 km/h (3 Bft) 97,87 %
14.09.2018 15:02 20,4 C 20,6 C 18,9 C 55 % 1018,0 hPa 0,0 l/m 2 min 0 min 626 W/m 18,0 km/h (3 Bft) 95,74 %
14.09.2018 15:04 20,4 C 20,6 C 18,9 C 55 % 1018,2 hPa 0,0 l/m 2 min 0 min 631 W/m 11,3 km/h (2 Bft) 97,83 %
14.09.2018 15:06 20,4 C 20,6 C 18,9 C 53 % 1018,2 hPa 0,0 l/m 2 min 0 min 632 W/m 9,0 km/h (2 Bft) 95,74 %
14.09.2018 15:08 20,4 C 20,6 C 18,9 C 52 % 1018,0 hPa 0,0 l/m 2 min 0 min 635 W/m 9,0 km/h (2 Bft) 93,62 %
14.09.2018 15:10 20,4 C 20,6 C 18,9 C 53 % 1018,0 hPa 0,0 l/m 2 min 0 min 625 W/m 6,8 km/h (2 Bft) 97,87 %
14.09.2018 15:12 20,5 C 20,6 C 18,9 C 53 % 1018,0 hPa 0,0 l/m 2 min 0 min 615 W/m 6,8 km/h (2 Bft) 95,74 %
14.09.2018 15:14 20,5 C 20,6 C 18,9 C 52 % 1017,9 hPa 0,0 l/m 2 min 0 min 609 W/m 4,5 km/h (1 Bft) 97,87 %
14.09.2018 15:16 20,6 C 20,6 C 18,9 C 54 % 1018,0 hPa 0,0 l/m 2 min 0 min 597 W/m 4,5 km/h (1 Bft) 95,65 %
14.09.2018 15:18 20,6 C 20,6 C 18,3 C 53 % 1017,9 hPa 0,0 l/m 2 min 0 min 609 W/m 6,8 km/h (2 Bft) 95,74 %
14.09.2018 15:20 20,6 C 20,6 C 18,9 C 52 % 1017,8 hPa 0,0 l/m 2 min 0 min 608 W/m 4,5 km/h (1 Bft) 95,74 %
14.09.2018 15:22 20,6 C 20,6 C 18,3 C 52 % 1017,9 hPa 0,0 l/m 2 min 0 min 601 W/m 11,3 km/h (2 Bft) 93,62 %
14.09.2018 15:24 20,6 C 20,6 C 18,3 C 52 % 1017,9 hPa 0,0 l/m 2 min 0 min 593 W/m 4,5 km/h (1 Bft) 93,62 %
14.09.2018 15:26 20,6 C 20,6 C 18,3 C 53 % 1017,8 hPa 0,0 l/m 2 min 0 min 573 W/m 4,5 km/h (1 Bft) 91,49 %
14.09.2018 15:28 20,6 C 20,6 C 18,9 C 52 % 1017,8 hPa 0,0 l/m 2 min 0 min 596 W/m 11,3 km/h (2 Bft) 93,48 %
14.09.2018 15:30 20,6 C 20,6 C 18,9 C 53 % 1017,9 hPa 0,0 l/m 2 min 0 min 600 W/m 11,3 km/h (2 Bft) 93,62 %
14.09.2018 15:32 20,6 C 20,6 C 18,9 C 52 % 1017,7 hPa 0,0 l/m 2 min 0 min 597 W/m 9,0 km/h (2 Bft) 91,49 %
14.09.2018 15:34 20,6 C 20,6 C 18,9 C 52 % 1017,7 hPa 0,0 l/m 2 min 0 min 598 W/m 18,0 km/h (3 Bft) 93,62 %
14.09.2018 15:36 20,6 C 20,0 C 18,9 C 50 % 1017,9 hPa 0,0 l/m 2 min 0 min 595 W/m 13,5 km/h (3 Bft) 93,62 %
14.09.2018 15:38 20,6 C 20,6 C 18,9 C 51 % 1017,7 hPa 0,0 l/m 2 min 0 min 594 W/m 9,0 km/h (2 Bft) 95,74 %
14.09.2018 15:40 20,6 C 20,6 C 18,9 C 50 % 1017,7 hPa 0,0 l/m 2 min 0 min 604 W/m 6,8 km/h (2 Bft) 95,65 %
14.09.2018 15:42 20,7 C 20,6 C 18,9 C 50 % 1017,7 hPa 0,0 l/m 2 min 0 min 591 W/m 9,0 km/h (2 Bft) 95,74 %
14.09.2018 15:44 20,7 C 20,6 C 18,9 C 51 % 1017,7 hPa 0,0 l/m 2 min 0 min 562 W/m 6,8 km/h (2 Bft) 93,62 %
14.09.2018 15:46 20,7 C 20,0 C 18,9 C 51 % 1017,7 hPa 0,0 l/m 2 min 0 min 560 W/m 9,0 km/h (2 Bft) 95,74 %
14.09.2018 15:48 20,7 C 20,6 C 18,9 C 51 % 1017,8 hPa 0,0 l/m 2 min 0 min 583 W/m 4,5 km/h (1 Bft) 95,74 %
14.09.2018 15:50 20,7 C 20,6 C 18,9 C 52 % 1017,8 hPa 0,0 l/m 2 min 0 min 567 W/m 11,3 km/h (2 Bft) 97,87 %
14.09.2018 15:52 20,7 C 20,6 C 18,9 C 51 % 1017,7 hPa 0,0 l/m 2 min 0 min 567 W/m 6,8 km/h (2 Bft) 93,48 %
14.09.2018 15:54 20,7 C 20,6 C 18,9 C 52 % 1017,8 hPa 0,0 l/m 2 min 0 min 568 W/m 4,5 km/h (1 Bft) 97,87 %
14.09.2018 15:56 20,7 C 20,6 C 18,9 C 51 % 1017,7 hPa 0,0 l/m 2 min 0 min 570 W/m 6,8 km/h (2 Bft) 95,74 %
14.09.2018 15:58 20,8 C 20,6 C 18,9 C 52 % 1017,8 hPa 0,0 l/m 2 min 0 min 571 W/m 6,8 km/h (2 Bft) 95,74 %
14.09.2018 16:00 20,8 C 20,6 C 18,9 C 50 % 1017,8 hPa 0,0 l/m 2 min 0 min 561 W/m 6,8 km/h (2 Bft) 93,62 %
14.09.2018 16:02 20,8 C 20,6 C 18,9 C 51 % 1017,8 hPa 0,0 l/m 2 min 0 min 493 W/m 4,5 km/h (1 Bft) 100,00 %
14.09.2018 16:04 20,8 C 21,1 C 18,9 C 51 % 1017,8 hPa 0,0 l/m 2 min 0 min 549 W/m 11,3 km/h (2 Bft) 97,83 %
14.09.2018 16:06 20,8 C 22,2 C 18,9 C 51 % 1017,9 hPa 0,0 l/m 2 min 0 min 561 W/m 6,8 km/h (2 Bft) 97,87 %
14.09.2018 16:08 20,9 C 21,7 C 18,3 C 50 % 1017,8 hPa 0,0 l/m 2 min 0 min 560 W/m 6,8 km/h (2 Bft) 100,00 %
14.09.2018 16:10 20,9 C 21,1 C 18,9 C 50 % 1017,9 hPa 0,0 l/m 2 min 0 min 546 W/m 6,8 km/h (2 Bft) 97,87 %
14.09.2018 16:12 20,9 C 21,1 C 18,9 C 51 % 1017,8 hPa 0,0 l/m 2 min 0 min 526 W/m 4,5 km/h (1 Bft) 100,00 %
14.09.2018 16:14 20,9 C 22,2 C 18,9 C 51 % 1017,8 hPa 0,0 l/m 2 min 0 min 532 W/m 4,5 km/h (1 Bft) 97,83 %
14.09.2018 16:16 21,0 C 21,7 C 18,9 C 51 % 1017,8 hPa 0,0 l/m 2 min 0 min 528 W/m 6,8 km/h (2 Bft) 97,87 %
14.09.2018 16:18 21,0 C 21,7 C 18,9 C 51 % 1017,7 hPa 0,0 l/m 2 min 0 min 513 W/m 6,8 km/h (2 Bft) 100,00 %
14.09.2018 16:20 21,0 C 22,2 C 18,9 C 52 % 1017,7 hPa 0,0 l/m 2 min 0 min 505 W/m 9,0 km/h (2 Bft) 97,87 %
14.09.2018 16:22 21,0 C 22,8 C 18,9 C 51 % 1017,7 hPa 0,0 l/m 2 min 0 min 501 W/m 11,3 km/h (2 Bft) 100,00 %
14.09.2018 16:24 21,1 C 22,8 C 18,9 C 51 % 1017,7 hPa 0,0 l/m 2 min 0 min 503 W/m 11,3 km/h (2 Bft) 100,00 %
14.09.2018 16:26 21,1 C 22,8 C 18,3 C 52 % 1017,7 hPa 0,0 l/m 2 min 0 min 496 W/m 4,5 km/h (1 Bft) 100,00 %
14.09.2018 16:28 21,1 C 22,8 C 18,3 C 52 % 1017,7 hPa 0,0 l/m 2 min 0 min 484 W/m 11,3 km/h (2 Bft) 100,00 %
14.09.2018 16:30 21,1 C 22,8 C 18,9 C 53 % 1017,7 hPa 0,0 l/m 2 min 0 min 462 W/m 6,8 km/h (2 Bft) 100,00 %
14.09.2018 16:32 21,1 C 23,3 C 18,9 C 51 % 1017,7 hPa 0,0 l/m 2 min 0 min 482 W/m 6,8 km/h (2 Bft) 100,00 %
14.09.2018 16:34 21,1 C 23,3 C 18,3 C 51 % 1017,7 hPa 0,0 l/m 2 min 0 min 489 W/m 6,8 km/h (2 Bft) 100,00 %
14.09.2018 16:36 21,0 C 22,2 C 18,3 C 51 % 1017,7 hPa 0,0 l/m 2 min 0 min 483 W/m 9,0 km/h (2 Bft) 97,87 %
14.09.2018 16:38 21,0 C 22,8 C 18,9 C 52 % 1017,7 hPa 0,0 l/m 2 min 0 min 487 W/m 9,0 km/h (2 Bft) 95,65 %
14.09.2018 16:40 21,1 C 22,8 C 18,9 C 54 % 1017,7 hPa 0,0 l/m 2 min 0 min 488 W/m 11,3 km/h (2 Bft) 100,00 %
14.09.2018 16:42 21,1 C 22,8 C 18,9 C 52 % 1017,7 hPa 0,0 l/m 2 min 0 min 487 W/m 11,3 km/h (2 Bft) 97,87 %
14.09.2018 16:44 21,1 C 22,8 C 18,9 C 52 % 1017,7 hPa 0,0 l/m 2 min 0 min 478 W/m 9,0 km/h (2 Bft) 100,00 %
14.09.2018 16:46 21,0 C 22,2 C 18,9 C 52 % 1017,7 hPa 0,0 l/m 2 min 0 min 466 W/m 9,0 km/h (2 Bft) 100,00 %
14.09.2018 16:48 21,0 C 22,2 C 18,9 C 52 % 1017,7 hPa 0,0 l/m 2 min 0 min 461 W/m 9,0 km/h (2 Bft) 100,00 %
14.09.2018 16:50 21,0 C 21,7 C 18,9 C 51 % 1017,7 hPa 0,0 l/m 2 min 0 min 450 W/m 9,0 km/h (2 Bft) 100,00 %
14.09.2018 16:52 21,0 C 21,7 C 18,3 C 51 % 1017,7 hPa 0,0 l/m 2 min 0 min 436 W/m 9,0 km/h (2 Bft) 100,00 %
14.09.2018 16:54 20,9 C 21,7 C 18,3 C 52 % 1017,7 hPa 0,0 l/m 2 min 0 min 444 W/m 6,8 km/h (2 Bft) 100,00 %
14.09.2018 16:56 20,9 C 21,1 C 18,3 C 52 % 1017,7 hPa 0,0 l/m 2 min 0 min 436 W/m 4,5 km/h (1 Bft) 100,00 %
14.09.2018 16:58 20,9 C 20,6 C 18,3 C 52 % 1017,7 hPa 0,0 l/m 2 min 0 min 428 W/m 6,8 km/h (2 Bft) 100,00 %
14.09.2018 17:00 20,9 C 20,6 C 18,3 C 52 % 1017,7 hPa 0,0 l/m 2 min 0 min 432 W/m 4,5 km/h (1 Bft) 100,00 %
14.09.2018 17:02 20,9 C 20,6 C 18,3 C 53 % 1017,6 hPa 0,0 l/m 2 min 0 min 418 W/m 9,0 km/h (2 Bft) 97,83 %
14.09.2018 17:04 20,9 C 21,7 C 18,9 C 54 % 1017,6 hPa 0,0 l/m 2 min 0 min 422 W/m 4,5 km/h (1 Bft) 100,00 %
14.09.2018 17:06 20,9 C 21,1 C 18,3 C 52 % 1017,6 hPa 0,0 l/m 2 min 0 min 425 W/m 11,3 km/h (2 Bft) 100,00 %
14.09.2018 17:08 20,9 C 21,7 C 18,3 C 53 % 1017,7 hPa 0,0 l/m 2 min 0 min 422 W/m 6,8 km/h (2 Bft) 100,00 %
14.09.2018 17:10 20,9 C 21,7 C 18,3 C 53 % 1017,7 hPa 0,0 l/m 2 min 0 min 429 W/m 4,5 km/h (1 Bft) 100,00 %
14.09.2018 17:12 20,9 C 21,7 C 18,3 C 53 % 1017,7 hPa 0,0 l/m 2 min 0 min 410 W/m 6,8 km/h (2 Bft) 100,00 %
14.09.2018 17:14 20,9 C 21,7 C 18,9 C 53 % 1017,7 hPa 0,0 l/m 2 min 0 min 421 W/m 6,8 km/h (2 Bft) 100,00 %
14.09.2018 17:16 20,9 C 22,2 C 18,9 C 53 % 1017,7 hPa 0,0 l/m 2 min 0 min 409 W/m 4,5 km/h (1 Bft) 97,87 %
14.09.2018 17:18 20,9 C 21,7 C 18,9 C 53 % 1017,7 hPa 0,0 l/m 2 min 0 min 406 W/m 9,0 km/h (2 Bft) 100,00 %
14.09.2018 17:20 20,9 C 21,7 C 18,9 C 53 % 1017,8 hPa 0,0 l/m 2 min 0 min 411 W/m 6,8 km/h (2 Bft) 100,00 %
14.09.2018 17:22 20,9 C 21,1 C 18,3 C 52 % 1017,8 hPa 0,0 l/m 2 min 0 min 415 W/m 9,0 km/h (2 Bft) 100,00 %
14.09.2018 17:24 20,8 C 21,1 C 18,3 C 52 % 1017,7 hPa 0,0 l/m 2 min 0 min 401 W/m 6,8 km/h (2 Bft) 100,00 %
14.09.2018 17:26 20,8 C 21,1 C 18,3 C 52 % 1017,7 hPa 0,0 l/m 2 min 0 min 388 W/m 4,5 km/h (1 Bft) 100,00 %
14.09.2018 17:28 20,8 C 21,1 C 18,3 C 52 % 1017,6 hPa 0,0 l/m 2 min 0 min 344 W/m 11,3 km/h (2 Bft) 100,00 %
14.09.2018 17:30 20,8 C 20,0 C 18,3 C 53 % 1017,7 hPa 0,0 l/m 2 min 0 min 202 W/m 6,8 km/h (2 Bft) 97,87 %
14.09.2018 17:32 20,8 C 20,0 C 18,3 C 52 % 1017,6 hPa 0,0 l/m 0 min 0 min 157 W/m 4,5 km/h (1 Bft) 97,87 %
14.09.2018 17:34 20,8 C 20,0 C 18,3 C 53 % 1017,6 hPa 0,0 l/m 2 min 0 min 263 W/m 6,8 km/h (2 Bft) 97,87 %
14.09.2018 17:36 20,7 C 20,0 C 18,3 C 53 % 1017,6 hPa 0,0 l/m 2 min 0 min 253 W/m 6,8 km/h (2 Bft) 100,00 %
14.09.2018 17:38 20,7 C 19,4 C 18,3 C 52 % 1017,6 hPa 0,0 l/m 0 min 0 min 119 W/m 6,8 km/h (2 Bft) 97,87 %
14.09.2018 17:40 20,7 C 19,4 C 17,8 C 53 % 1017,7 hPa 0,0 l/m 0 min 0 min 150 W/m 2,3 km/h (1 Bft) 97,87 %
14.09.2018 17:42 20,6 C 19,4 C 17,8 C 54 % 1017,7 hPa 0,0 l/m 0 min 0 min 159 W/m 4,5 km/h (1 Bft) 97,87 %
14.09.2018 17:44 20,6 C 19,4 C 17,8 C 53 % 1017,6 hPa 0,0 l/m 2 min 0 min 260 W/m 4,5 km/h (1 Bft) 100,00 %
14.09.2018 17:46 20,5 C 19,4 C 17,8 C 54 % 1017,7 hPa 0,0 l/m 2 min 0 min 242 W/m 6,8 km/h (2 Bft) 95,74 %
14.09.2018 17:48 20,4 C 19,4 C 17,8 C 53 % 1017,7 hPa 0,0 l/m 2 min 0 min 241 W/m 9,0 km/h (2 Bft) 97,83 %
14.09.2018 17:50 20,4 C 19,4 C 18,3 C 54 % 1017,7 hPa 0,0 l/m 2 min 0 min 221 W/m 4,5 km/h (1 Bft) 95,74 %
14.09.2018 17:52 20,3 C 19,4 C 17,8 C 54 % 1017,6 hPa 0,0 l/m 2 min 0 min 199 W/m 6,8 km/h (2 Bft) 96,23 %
14.09.2018 17:54 20,3 C 19,4 C 18,3 C 54 % 1017,7 hPa 0,0 l/m 2 min 0 min 235 W/m 6,8 km/h (2 Bft) 95,74 %
14.09.2018 17:56 20,3 C 19,4 C 17,8 C 54 % 1017,7 hPa 0,0 l/m 2 min 0 min 294 W/m 6,8 km/h (2 Bft) 95,74 %
14.09.2018 17:58 20,2 C 19,4 C 17,8 C 54 % 1017,7 hPa 0,0 l/m 2 min 0 min 339 W/m 11,3 km/h (2 Bft) 93,62 %
14.09.2018 18:00 20,2 C 19,4 C 18,3 C 54 % 1017,7 hPa 0,0 l/m 2 min 0 min 302 W/m 4,5 km/h (1 Bft) 91,49 %
14.09.2018 18:02 20,2 C 19,4 C 18,3 C 54 % 1017,8 hPa 0,0 l/m 2 min 0 min 158 W/m 6,8 km/h (2 Bft) 93,48 %
14.09.2018 18:04 20,1 C 19,4 C 18,3 C 54 % 1017,8 hPa 0,0 l/m 2 min 0 min 158 W/m 2,3 km/h (1 Bft) 93,62 %
14.09.2018 18:06 20,1 C 19,4 C 18,3 C 54 % 1017,7 hPa 0,0 l/m 2 min 0 min 229 W/m 4,5 km/h (1 Bft) 93,62 %
14.09.2018 18:08 20,1 C 19,4 C 18,3 C 54 % 1017,7 hPa 0,0 l/m 2 min 0 min 277 W/m 2,3 km/h (1 Bft) 93,62 %
14.09.2018 18:10 20,1 C 19,4 C 18,3 C 55 % 1017,8 hPa 0,0 l/m 2 min 0 min 261 W/m 4,5 km/h (1 Bft) 93,62 %
14.09.2018 18:12 20,0 C 19,4 C 18,3 C 55 % 1017,8 hPa 0,0 l/m 2 min 0 min 242 W/m 6,8 km/h (2 Bft) 95,74 %
14.09.2018 18:14 20,0 C 19,4 C 18,3 C 56 % 1017,8 hPa 0,0 l/m 2 min 0 min 223 W/m 4,5 km/h (1 Bft) 95,65 %
14.09.2018 18:16 20,0 C 18,9 C 17,8 C 55 % 1017,8 hPa 0,0 l/m 2 min 0 min 206 W/m 6,8 km/h (2 Bft) 92,86 %
14.09.2018 18:18 19,9 C 18,9 C 17,8 C 55 % 1017,8 hPa 0,0 l/m 2 min 0 min 168 W/m 6,8 km/h (2 Bft) 93,62 %
14.09.2018 18:20 19,9 C 18,9 C 17,8 C 55 % 1017,8 hPa 0,0 l/m 2 min 0 min 168 W/m 9,0 km/h (2 Bft) 91,49 %
14.09.2018 18:22 19,9 C 18,9 C 17,8 C 55 % 1017,7 hPa 0,0 l/m 2 min 0 min 142 W/m 6,8 km/h (2 Bft) 92,45 %
14.09.2018 18:24 19,8 C 18,9 C 17,8 C 55 % 1017,8 hPa 0,0 l/m 2 min 0 min 141 W/m 9,0 km/h (2 Bft) 91,30 %
14.09.2018 18:26 19,8 C 18,9 C 17,8 C 55 % 1017,8 hPa 0,0 l/m 2 min 0 min 116 W/m 4,5 km/h (1 Bft) 93,62 %
14.09.2018 18:28 19,7 C 18,3 C 17,8 C 55 % 1017,7 hPa 0,0 l/m 0 min 0 min 88 W/m 4,5 km/h (1 Bft) 93,62 %
14.09.2018 18:30 19,7 C 18,3 C 17,8 C 55 % 1017,7 hPa 0,0 l/m 0 min 0 min 81 W/m 4,5 km/h (1 Bft) 93,62 %
14.09.2018 18:32 19,7 C 18,3 C 17,8 C 56 % 1017,7 hPa 0,0 l/m 0 min 0 min 76 W/m 4,5 km/h (1 Bft) 95,24 %
14.09.2018 18:34 19,6 C 18,3 C 17,2 C 55 % 1017,7 hPa 0,0 l/m 0 min 0 min 89 W/m 6,8 km/h (2 Bft) 97,87 %
14.09.2018 18:36 19,5 C 18,3 C 17,2 C 56 % 1017,8 hPa 0,0 l/m 2 min 0 min 99 W/m 6,8 km/h (2 Bft) 96,15 %
14.09.2018 18:38 19,4 C 18,3 C 17,2 C 56 % 1017,8 hPa 0,0 l/m 2 min 0 min 96 W/m 4,5 km/h (1 Bft) 93,62 %
14.09.2018 18:40 19,4 C 18,3 C 17,2 C 56 % 1017,8 hPa 0,0 l/m 0 min 0 min 84 W/m 4,5 km/h (1 Bft) 95,74 %
14.09.2018 18:42 19,4 C 18,3 C 17,2 C 56 % 1017,8 hPa 0,0 l/m 2 min 0 min 108 W/m 9,0 km/h (2 Bft) 95,74 %
14.09.2018 18:44 19,3 C 18,3 C 17,2 C 56 % 1017,8 hPa 0,0 l/m 2 min 0 min 127 W/m 6,8 km/h (2 Bft) 95,74 %
14.09.2018 18:46 19,3 C 18,3 C 17,2 C 56 % 1017,7 hPa 0,0 l/m 2 min 0 min 112 W/m 6,8 km/h (2 Bft) 97,87 %
14.09.2018 18:48 19,2 C 18,3 C 17,2 C 57 % 1017,7 hPa 0,0 l/m 2 min 0 min 133 W/m 2,3 km/h (1 Bft) 95,65 %
14.09.2018 18:50 19,2 C 18,3 C 17,2 C 57 % 1017,7 hPa 0,0 l/m 2 min 0 min 120 W/m 4,5 km/h (1 Bft) 97,87 %
14.09.2018 18:52 19,2 C 18,3 C 17,2 C 57 % 1017,7 hPa 0,0 l/m 2 min 0 min 109 W/m 4,5 km/h (1 Bft) 97,92 %
14.09.2018 18:54 19,1 C 18,3 C 17,2 C 58 % 1017,7 hPa 0,0 l/m 2 min 0 min 80 W/m 4,5 km/h (1 Bft) 97,87 %
14.09.2018 18:56 19,1 C 18,3 C 17,2 C 57 % 1017,7 hPa 0,0 l/m 2 min 0 min 74 W/m 2,3 km/h (1 Bft) 95,74 %
14.09.2018 18:58 19,1 C 18,3 C 17,2 C 57 % 1017,7 hPa 0,0 l/m 2 min 0 min 65 W/m 4,5 km/h (1 Bft) 97,83 %
14.09.2018 19:00 19,1 C 18,3 C 17,2 C 57 % 1017,7 hPa 0,0 l/m 2 min 0 min 63 W/m 6,8 km/h (2 Bft) 97,87 %
14.09.2018 19:02 19,0 C 17,8 C 17,2 C 57 % 1017,7 hPa 0,0 l/m 2 min 0 min 62 W/m 0,0 km/h (0 Bft) 97,87 %
14.09.2018 19:04 19,0 C 17,8 C 17,2 C 57 % 1017,6 hPa 0,0 l/m 2 min 0 min 63 W/m 4,5 km/h (1 Bft) 100,00 %
14.09.2018 19:06 18,9 C 17,8 C 17,2 C 57 % 1017,6 hPa 0,0 l/m 2 min 0 min 63 W/m 4,5 km/h (1 Bft) 97,22 %
14.09.2018 19:08 18,9 C 17,8 C 17,2 C 57 % 1017,7 hPa 0,0 l/m 2 min 0 min 62 W/m 4,5 km/h (1 Bft) 100,00 %
14.09.2018 19:10 18,9 C 17,8 C 17,2 C 58 % 1017,6 hPa 0,0 l/m 2 min 0 min 59 W/m 2,3 km/h (1 Bft) 100,00 %
14.09.2018 19:12 18,9 C 17,8 C 17,2 C 58 % 1017,6 hPa 0,0 l/m 2 min 0 min 51 W/m 6,8 km/h (2 Bft) 97,87 %
14.09.2018 19:14 18,8 C 17,2 C 16,7 C 58 % 1017,7 hPa 0,0 l/m 2 min 0 min 45 W/m 6,8 km/h (2 Bft) 100,00 %
14.09.2018 19:16 18,8 C 17,2 C 16,7 C 58 % 1017,7 hPa 0,0 l/m 2 min 0 min 40 W/m 6,8 km/h (2 Bft) 97,87 %
14.09.2018 19:18 18,7 C 17,2 C 16,7 C 58 % 1017,8 hPa 0,0 l/m 0 min 0 min 36 W/m 4,5 km/h (1 Bft) 100,00 %
14.09.2018 19:20 18,7 C 17,2 C 16,7 C 58 % 1017,9 hPa 0,0 l/m 0 min 0 min 33 W/m 9,0 km/h (2 Bft) 100,00 %
14.09.2018 19:22 18,7 C 17,2 C 16,7 C 59 % 1017,9 hPa 0,0 l/m 0 min 0 min 30 W/m 4,5 km/h (1 Bft) 100,00 %
14.09.2018 19:24 18,6 C 17,2 C 16,7 C 59 % 1017,9 hPa 0,0 l/m 0 min 0 min 27 W/m 4,5 km/h (1 Bft) 100,00 %
14.09.2018 19:26 18,6 C 17,2 C 16,7 C 59 % 1017,8 hPa 0,0 l/m 0 min 0 min 26 W/m 4,5 km/h (1 Bft) 100,00 %
14.09.2018 19:28 18,5 C 16,7 C 16,7 C 59 % 1017,9 hPa 0,0 l/m 2 min 0 min 24 W/m 4,5 km/h (1 Bft) 100,00 %
14.09.2018 19:30 18,4 C 16,7 C 16,7 C 59 % 1017,9 hPa 0,0 l/m 0 min 0 min 21 W/m 4,5 km/h (1 Bft) 100,00 %
14.09.2018 19:32 18,4 C 16,7 C 16,1 C 60 % 1017,9 hPa 0,0 l/m 2 min 0 min 20 W/m 4,5 km/h (1 Bft) 100,00 %
14.09.2018 19:34 18,3 C 16,7 C 16,1 C 60 % 1017,9 hPa 0,0 l/m 0 min 0 min 18 W/m 2,3 km/h (1 Bft) 100,00 %
14.09.2018 19:36 18,3 C 16,7 C 16,1 C 61 % 1017,9 hPa 0,0 l/m 0 min 0 min 15 W/m 4,5 km/h (1 Bft) 100,00 %
14.09.2018 19:38 18,2 C 16,7 C 16,1 C 61 % 1017,9 hPa 0,0 l/m 0 min 0 min 13 W/m 2,3 km/h (1 Bft) 100,00 %
14.09.2018 19:41 18,2 C 16,1 C 16,1 C 61 % 1017,9 hPa 0,0 l/m 0 min 0 min 11 W/m 0,0 km/h (0 Bft) 98,78 %
14.09.2018 19:42 18,2 C 16,1 C 15,6 C 61 % 1017,9 hPa 0,0 l/m 0 min 0 min 9 W/m 0,0 km/h (0 Bft) 100,00 %
14.09.2018 19:44 18,1 C 16,1 C 15,6 C 61 % 1017,9 hPa 0,0 l/m 0 min 0 min 7 W/m 0,0 km/h (0 Bft) 100,00 %
14.09.2018 19:46 18,0 C 16,1 C 15,6 C 62 % 1017,8 hPa 0,0 l/m 0 min 0 min 7 W/m 2,3 km/h (1 Bft) 97,87 %
14.09.2018 19:48 17,9 C 15,6 C 15,6 C 62 % 1017,9 hPa 0,0 l/m 0 min 0 min 5 W/m 0,0 km/h (0 Bft) 100,00 %
14.09.2018 19:50 17,9 C 15,6 C 15,6 C 63 % 1017,9 hPa 0,0 l/m 0 min 0 min 5 W/m 0,0 km/h (0 Bft) 100,00 %
14.09.2018 19:54 17,7 C 15,6 C 15,0 C 63 % 1018,0 hPa 0,0 l/m 0 min 0 min 0 W/m 0,0 km/h (0 Bft) 100,00 %
14.09.2018 19:56 17,6 C 15,6 C 15,0 C 63 % 1018,0 hPa 0,0 l/m 0 min 0 min 0 W/m 0,0 km/h (0 Bft) 100,00 %
14.09.2018 19:58 17,5 C 15,6 C 15,0 C 64 % 1017,9 hPa 0,0 l/m 0 min 0 min 0 W/m 0,0 km/h (0 Bft) 100,00 %
14.09.2018 20:00 17,4 C 15,6 C 15,0 C 64 % 1017,9 hPa 0,0 l/m 0 min 0 min 0 W/m 0,0 km/h (0 Bft) 100,00 %
14.09.2018 20:02 17,4 C 15,0 C 15,0 C 65 % 1018,0 hPa 0,0 l/m 0 min 0 min 0 W/m 0,0 km/h (0 Bft) 98,00 %
14.09.2018 20:04 17,3 C 15,0 C 15,0 C 65 % 1017,9 hPa 0,0 l/m 0 min 0 min 0 W/m 0,0 km/h (0 Bft) 97,87 %
14.09.2018 20:06 17,2 C 15,0 C 14,4 C 65 % 1018,0 hPa 0,0 l/m 0 min 0 min 0 W/m 0,0 km/h (0 Bft) 98,11 %
14.09.2018 20:08 17,2 C 15,0 C 14,4 C 65 % 1017,9 hPa 0,0 l/m 0 min 0 min 0 W/m 0,0 km/h (0 Bft) 100,00 %
14.09.2018 20:10 17,1 C 15,0 C 14,4 C 65 % 1017,9 hPa 0,0 l/m 0 min 0 min 0 W/m 0,0 km/h (0 Bft) 100,00 %
14.09.2018 20:12 17,1 C 15,0 C 14,4 C 66 % 1017,9 hPa 0,0 l/m 0 min 0 min 0 W/m 0,0 km/h (0 Bft) 100,00 %
14.09.2018 20:14 17,0 C 14,4 C 14,4 C 66 % 1017,9 hPa 0,0 l/m 0 min 0 min 0 W/m 0,0 km/h (0 Bft) 100,00 %
14.09.2018 20:16 16,9 C 14,4 C 14,4 C 66 % 1017,9 hPa 0,0 l/m 0 min 0 min 0 W/m 0,0 km/h (0 Bft) 100,00 %
14.09.2018 20:18 16,8 C 14,4 C 13,9 C 66 % 1017,9 hPa 0,0 l/m 0 min 0 min 0 W/m 0,0 km/h (0 Bft) 100,00 %
14.09.2018 20:20 16,8 C 14,4 C 13,9 C 66 % 1018,0 hPa 0,0 l/m 0 min 0 min 0 W/m 0,0 km/h (0 Bft) 97,83 %
14.09.2018 20:22 16,7 C 14,4 C 13,9 C 66 % 1018,1 hPa 0,0 l/m 0 min 0 min 0 W/m 0,0 km/h (0 Bft) 100,00 %
14.09.2018 20:24 16,6 C 14,4 C 13,9 C 67 % 1018,0 hPa 0,0 l/m 0 min 0 min 0 W/m 0,0 km/h (0 Bft) 100,00 %
14.09.2018 20:26 16,6 C 13,9 C 13,9 C 67 % 1018,0 hPa 0,0 l/m 0 min 0 min 0 W/m 0,0 km/h (0 Bft) 98,11 %
14.09.2018 20:28 16,5 C 13,9 C 13,9 C 67 % 1018,0 hPa 0,0 l/m 0 min 0 min 0 W/m 0,0 km/h (0 Bft) 97,37 %
14.09.2018 20:30 16,4 C 13,9 C 13,9 C 67 % 1018,0 hPa 0,0 l/m 0 min 0 min 0 W/m 0,0 km/h (0 Bft) 98,00 %
14.09.2018 20:32 16,3 C 13,9 C 13,3 C 67 % 1018,0 hPa 0,0 l/m 0 min 0 min 0 W/m 0,0 km/h (0 Bft) 97,83 %
14.09.2018 20:34 16,3 C 13,9 C 13,3 C 67 % 1018,1 hPa 0,0 l/m 0 min 0 min 0 W/m 0,0 km/h (0 Bft) 94,44 %
14.09.2018 20:36 16,2 C 13,9 C 13,3 C 68 % 1018,1 hPa 0,0 l/m 0 min 0 min 0 W/m 0,0 km/h (0 Bft) 97,37 %
14.09.2018 20:38 16,2 C 13,9 C 13,9 C 68 % 1018,2 hPa 0,0 l/m 0 min 0 min 0 W/m 0,0 km/h (0 Bft) 91,84 %
14.09.2018 20:40 16,1 C 13,9 C 13,9 C 68 % 1018,1 hPa 0,0 l/m 0 min 0 min 0 W/m 0,0 km/h (0 Bft) 95,74 %
14.09.2018 20:42 16,0 C 13,9 C 13,9 C 69 % 1018,2 hPa 0,0 l/m 0 min 0 min 0 W/m 0,0 km/h (0 Bft) 96,23 %
14.09.2018 20:44 16,0 C 13,9 C 13,9 C 69 % 1018,2 hPa 0,0 l/m 0 min 0 min 0 W/m 0,0 km/h (0 Bft) 94,74 %
14.09.2018 20:46 15,9 C 14,4 C 13,9 C 69 % 1018,2 hPa 0,0 l/m 0 min 0 min 0 W/m 0,0 km/h (0 Bft) 93,88 %
14.09.2018 20:48 15,8 C 14,4 C 13,9 C 69 % 1018,3 hPa 0,0 l/m 0 min 0 min 0 W/m 0,0 km/h (0 Bft) 95,74 %
14.09.2018 20:50 15,8 C 14,4 C 13,9 C 69 % 1018,3 hPa 0,0 l/m 0 min 0 min 0 W/m 0,0 km/h (0 Bft) 96,23 %
14.09.2018 20:52 15,8 C 14,4 C 13,9 C 70 % 1018,2 hPa 0,0 l/m 0 min 0 min 0 W/m 0,0 km/h (0 Bft) 93,62 %
14.09.2018 20:54 15,7 C 14,4 C 13,9 C 70 % 1018,3 hPa 0,0 l/m 0 min 0 min 0 W/m 0,0 km/h (0 Bft) 95,74 %
14.09.2018 20:56 15,7 C 14,4 C 13,9 C 70 % 1018,3 hPa 0,0 l/m 0 min 0 min 0 W/m 0,0 km/h (0 Bft) 94,74 %
14.09.2018 20:58 15,6 C 14,4 C 13,9 C 70 % 1018,3 hPa 0,0 l/m 0 min 0 min 0 W/m 0,0 km/h (0 Bft) 95,92 %
14.09.2018 21:00 15,6 C 15,0 C 14,4 C 70 % 1018,3 hPa 0,0 l/m 0 min 0 min 0 W/m 0,0 km/h (0 Bft) 93,62 %
14.09.2018 21:02 15,6 C 14,4 C 14,4 C 71 % 1018,3 hPa 0,0 l/m 0 min 0 min 0 W/m 0,0 km/h (0 Bft) 94,34 %
14.09.2018 21:04 15,6 C 14,4 C 14,4 C 71 % 1018,2 hPa 0,0 l/m 0 min 0 min 0 W/m 0,0 km/h (0 Bft) 94,74 %
14.09.2018 21:06 15,5 C 14,4 C 13,9 C 71 % 1018,2 hPa 0,0 l/m 0 min 0 min 0 W/m 0,0 km/h (0 Bft) 96,00 %
14.09.2018 21:08 15,5 C 15,0 C 13,9 C 71 % 1018,2 hPa 0,0 l/m 0 min 0 min 0 W/m 0,0 km/h (0 Bft) 95,65 %
14.09.2018 21:10 15,5 C 14,4 C 13,9 C 71 % 1018,2 hPa 0,0 l/m 0 min 0 min 0 W/m 0,0 km/h (0 Bft) 97,67 %
14.09.2018 21:12 15,4 C 14,4 C 13,9 C 72 % 1018,2 hPa 0,0 l/m 0 min 0 min 0 W/m 0,0 km/h (0 Bft) 93,62 %
14.09.2018 21:14 15,4 C 14,4 C 13,9 C 72 % 1018,3 hPa 0,0 l/m 0 min 0 min 0 W/m 0,0 km/h (0 Bft) 95,74 %
14.09.2018 21:16 15,4 C 14,4 C 13,9 C 72 % 1018,3 hPa 0,0 l/m 0 min 0 min 0 W/m 0,0 km/h (0 Bft) 100,00 %
14.09.2018 21:18 15,4 C 14,4 C 13,9 C 72 % 1018,3 hPa 0,0 l/m 0 min 0 min 0 W/m 0,0 km/h (0 Bft) 95,74 %
14.09.2018 21:20 15,4 C 14,4 C 13,9 C 72 % 1018,3 hPa 0,0 l/m 0 min 0 min 0 W/m 0,0 km/h (0 Bft) 98,31 %
14.09.2018 21:22 15,4 C 14,4 C 13,9 C 72 % 1018,4 hPa 0,0 l/m 0 min 0 min 0 W/m 0,0 km/h (0 Bft) 100,00 %
14.09.2018 21:24 15,4 C 14,4 C 13,9 C 73 % 1018,4 hPa 0,0 l/m 0 min 0 min 0 W/m 2,3 km/h (1 Bft) 100,00 %
14.09.2018 21:26 15,4 C 14,4 C 13,9 C 73 % 1018,4 hPa 0,0 l/m 0 min 0 min 0 W/m 0,0 km/h (0 Bft) 100,00 %
14.09.2018 21:28 15,3 C 14,4 C 13,9 C 73 % 1018,4 hPa 0,0 l/m 0 min 0 min 0 W/m 2,3 km/h (1 Bft) 100,00 %
14.09.2018 21:30 15,3 C 14,4 C 14,4 C 73 % 1018,5 hPa 0,0 l/m 0 min 0 min 0 W/m 0,0 km/h (0 Bft) 97,87 %
14.09.2018 21:32 15,3 C 14,4 C 14,4 C 73 % 1018,5 hPa 0,0 l/m 0 min 0 min 0 W/m 0,0 km/h (0 Bft) 96,00 %
14.09.2018 21:34 15,3 C 14,4 C 14,4 C 73 % 1018,5 hPa 0,0 l/m 0 min 0 min 0 W/m 0,0 km/h (0 Bft) 100,00 %
14.09.2018 21:36 15,3 C 14,4 C 14,4 C 73 % 1018,5 hPa 0,0 l/m 0 min 0 min 0 W/m 0,0 km/h (0 Bft) 97,87 %
14.09.2018 21:38 15,3 C 14,4 C 14,4 C 73 % 1018,5 hPa 0,0 l/m 0 min 0 min 0 W/m 4,5 km/h (1 Bft) 95,35 %
14.09.2018 21:40 15,3 C 14,4 C 14,4 C 73 % 1018,4 hPa 0,0 l/m 0 min 0 min 0 W/m 0,0 km/h (0 Bft) 97,83 %
14.09.2018 21:42 15,3 C 14,4 C 14,4 C 73 % 1018,4 hPa 0,0 l/m 0 min 0 min 0 W/m 0,0 km/h (0 Bft) 97,92 %
14.09.2018 21:44 15,3 C 14,4 C 14,4 C 73 % 1018,4 hPa 0,0 l/m 0 min 0 min 0 W/m 0,0 km/h (0 Bft) 96,00 %
14.09.2018 21:46 15,3 C 14,4 C 14,4 C 73 % 1018,4 hPa 0,0 l/m 0 min 0 min 0 W/m 0,0 km/h (0 Bft) 97,87 %
14.09.2018 21:48 15,3 C 14,4 C 13,9 C 74 % 1018,4 hPa 0,0 l/m 0 min 0 min 0 W/m 0,0 km/h (0 Bft) 97,87 %
14.09.2018 21:50 15,3 C 14,4 C 13,9 C 74 % 1018,4 hPa 0,0 l/m 0 min 0 min 0 W/m 0,0 km/h (0 Bft) 97,73 %
14.09.2018 21:52 15,3 C 14,4 C 13,9 C 74 % 1018,4 hPa 0,0 l/m 0 min 0 min 0 W/m 0,0 km/h (0 Bft) 97,96 %
14.09.2018 21:54 15,3 C 14,4 C 13,9 C 74 % 1018,3 hPa 0,0 l/m 0 min 0 min 0 W/m 0,0 km/h (0 Bft) 97,87 %
14.09.2018 21:56 15,3 C 13,9 C 13,9 C 74 % 1018,3 hPa 0,0 l/m 0 min 0 min 0 W/m 0,0 km/h (0 Bft) 97,87 %
14.09.2018 21:58 15,3 C 13,9 C 13,9 C 74 % 1018,4 hPa 0,0 l/m 0 min 0 min 0 W/m 0,0 km/h (0 Bft) 95,74 %
14.09.2018 22:00 15,2 C 13,9 C 13,9 C 74 % 1018,5 hPa 0,0 l/m 0 min 0 min 0 W/m 0,0 km/h (0 Bft) 100,00 %
14.09.2018 22:02 15,2 C 13,9 C 13,3 C 74 % 1018,4 hPa 0,0 l/m 0 min 0 min 0 W/m 0,0 km/h (0 Bft) 95,92 %
14.09.2018 22:04 15,2 C 13,9 C 13,3 C 74 % 1018,5 hPa 0,0 l/m 0 min 0 min 0 W/m 0,0 km/h (0 Bft) 97,87 %
14.09.2018 22:06 15,2 C 13,9 C 13,3 C 74 % 1018,5 hPa 0,0 l/m 0 min 0 min 0 W/m 0,0 km/h (0 Bft) 97,87 %
14.09.2018 22:08 15,2 C 13,9 C 13,3 C 74 % 1018,5 hPa 0,0 l/m 0 min 0 min 0 W/m 0,0 km/h (0 Bft) 97,87 %
14.09.2018 22:10 15,1 C 13,3 C 13,3 C 74 % 1018,6 hPa 0,0 l/m 0 min 0 min 0 W/m 0,0 km/h (0 Bft) 97,73 %
14.09.2018 22:12 15,1 C 13,3 C 13,3 C 74 % 1018,5 hPa 0,0 l/m 0 min 0 min 0 W/m 0,0 km/h (0 Bft) 97,96 %
14.09.2018 22:14 15,1 C 13,3 C 13,3 C 74 % 1018,5 hPa 0,0 l/m 0 min 0 min 0 W/m 0,0 km/h (0 Bft) 95,83 %
14.09.2018 22:16 15,1 C 13,3 C 12,8 C 74 % 1018,5 hPa 0,0 l/m 0 min 0 min 0 W/m 0,0 km/h (0 Bft) 95,65 %
14.09.2018 22:18 15,1 C 13,9 C 12,8 C 74 % 1018,5 hPa 0,0 l/m 0 min 0 min 0 W/m 0,0 km/h (0 Bft) 97,87 %
14.09.2018 22:20 15,0 C 13,3 C 12,8 C 74 % 1018,5 hPa 0,0 l/m 0 min 0 min 0 W/m 0,0 km/h (0 Bft) 97,73 %
14.09.2018 22:22 14,9 C 13,3 C 12,8 C 74 % 1018,5 hPa 0,0 l/m 0 min 0 min 0 W/m 0,0 km/h (0 Bft) 97,92 %
14.09.2018 22:24 14,9 C 13,3 C 12,8 C 74 % 1018,5 hPa 0,0 l/m 0 min 0 min 0 W/m 0,0 km/h (0 Bft) 97,87 %
14.09.2018 22:26 14,9 C 13,3 C 12,8 C 75 % 1018,6 hPa 0,0 l/m 0 min 0 min 0 W/m 0,0 km/h (0 Bft) 97,96 %
14.09.2018 22:28 14,8 C 13,3 C 12,8 C 75 % 1018,6 hPa 0,0 l/m 0 min 0 min 0 W/m 0,0 km/h (0 Bft) 95,65 %
14.09.2018 22:30 14,8 C 12,8 C 12,8 C 75 % 1018,6 hPa 0,0 l/m 0 min 0 min 0 W/m 0,0 km/h (0 Bft) 97,87 %
14.09.2018 22:32 14,8 C 12,8 C 12,8 C 75 % 1018,7 hPa 0,0 l/m 0 min 0 min 0 W/m 0,0 km/h (0 Bft) 98,15 %
14.09.2018 22:34 14,7 C 12,8 C 12,8 C 75 % 1018,7 hPa 0,0 l/m 0 min 0 min 0 W/m 0,0 km/h (0 Bft) 94,74 %
14.09.2018 22:36 14,7 C 12,8 C 12,8 C 75 % 1018,6 hPa 0,0 l/m 0 min 0 min 0 W/m 0,0 km/h (0 Bft) 97,96 %
14.09.2018 22:38 14,7 C 12,8 C 12,8 C 76 % 1018,7 hPa 0,0 l/m 0 min 0 min 0 W/m 0,0 km/h (0 Bft) 97,87 %
14.09.2018 22:40 14,6 C 12,8 C 12,8 C 76 % 1018,7 hPa 0,0 l/m 0 min 0 min 0 W/m 0,0 km/h (0 Bft) 97,62 %
14.09.2018 22:42 14,6 C 13,3 C 12,8 C 77 % 1018,8 hPa 0,0 l/m 0 min 0 min 0 W/m 0,0 km/h (0 Bft) 95,74 %
14.09.2018 22:44 14,5 C 13,3 C 13,3 C 77 % 1018,7 hPa 0,0 l/m 0 min 0 min 0 W/m 0,0 km/h (0 Bft) 97,87 %
14.09.2018 22:46 14,5 C 13,3 C 13,3 C 77 % 1018,8 hPa 0,0 l/m 0 min 0 min 0 W/m 2,3 km/h (1 Bft) 95,74 %
14.09.2018 22:48 14,4 C 13,9 C 13,3 C 77 % 1018,8 hPa 0,0 l/m 0 min 0 min 0 W/m 4,5 km/h (1 Bft) 100,00 %
14.09.2018 22:50 14,4 C 13,9 C 13,3 C 77 % 1018,8 hPa 0,0 l/m 0 min 0 min 0 W/m 0,0 km/h (0 Bft) 97,83 %
14.09.2018 22:52 14,4 C 13,9 C 13,9 C 77 % 1018,7 hPa 0,0 l/m 0 min 0 min 0 W/m 2,3 km/h (1 Bft) 98,31 %
14.09.2018 22:54 14,4 C 13,9 C 13,9 C 77 % 1018,7 hPa 0,0 l/m 0 min 0 min 0 W/m 0,0 km/h (0 Bft) 100,00 %
14.09.2018 22:56 14,4 C 13,9 C 13,9 C 77 % 1018,7 hPa 0,0 l/m 0 min 0 min 0 W/m 2,3 km/h (1 Bft) 95,74 %
14.09.2018 22:58 14,4 C 13,9 C 13,9 C 77 % 1018,7 hPa 0,0 l/m 0 min 0 min 0 W/m 2,3 km/h (1 Bft) 95,83 %
14.09.2018 23:00 14,4 C 14,4 C 13,9 C 77 % 1018,7 hPa 0,0 l/m 0 min 0 min 0 W/m 6,8 km/h (2 Bft) 97,96 %
14.09.2018 23:02 14,4 C 14,4 C 13,9 C 77 % 1018,8 hPa 0,0 l/m 0 min 0 min 0 W/m 4,5 km/h (1 Bft) 95,83 %
14.09.2018 23:04 14,4 C 14,4 C 13,9 C 77 % 1018,8 hPa 0,0 l/m 0 min 0 min 0 W/m 4,5 km/h (1 Bft) 97,83 %
14.09.2018 23:06 14,4 C 14,4 C 13,9 C 77 % 1018,9 hPa 0,0 l/m 0 min 0 min 0 W/m 2,3 km/h (1 Bft) 97,78 %
14.09.2018 23:08 14,4 C 14,4 C 13,9 C 77 % 1018,8 hPa 0,0 l/m 0 min 0 min 0 W/m 0,0 km/h (0 Bft) 95,92 %
14.09.2018 23:10 14,4 C 14,4 C 13,9 C 77 % 1018,8 hPa 0,0 l/m 0 min 0 min 0 W/m 2,3 km/h (1 Bft) 97,87 %
14.09.2018 23:12 14,4 C 14,4 C 13,9 C 77 % 1018,8 hPa 0,0 l/m 0 min 0 min 0 W/m 2,3 km/h (1 Bft) 94,34 %
14.09.2018 23:14 14,4 C 14,4 C 14,4 C 77 % 1018,8 hPa 0,0 l/m 0 min 0 min 0 W/m 2,3 km/h (1 Bft) 94,74 %
14.09.2018 23:16 14,5 C 14,4 C 14,4 C 77 % 1018,8 hPa 0,0 l/m 0 min 0 min 0 W/m 4,5 km/h (1 Bft) 95,92 %
14.09.2018 23:18 14,5 C 14,4 C 14,4 C 76 % 1018,8 hPa 0,0 l/m 0 min 0 min 0 W/m 4,5 km/h (1 Bft) 97,87 %
14.09.2018 23:20 14,6 C 14,4 C 14,4 C 76 % 1018,9 hPa 0,0 l/m 0 min 0 min 0 W/m 6,8 km/h (2 Bft) 96,30 %
14.09.2018 23:22 14,6 C 14,4 C 14,4 C 76 % 1018,9 hPa 0,0 l/m 0 min 0 min 0 W/m 2,3 km/h (1 Bft) 97,83 %
14.09.2018 23:24 14,6 C 14,4 C 14,4 C 76 % 1018,9 hPa 0,0 l/m 0 min 0 min 0 W/m 2,3 km/h (1 Bft) 97,87 %
14.09.2018 23:26 14,7 C 14,4 C 14,4 C 76 % 1018,9 hPa 0,0 l/m 0 min 0 min 0 W/m 2,3 km/h (1 Bft) 97,37 %
14.09.2018 23:28 14,7 C 14,4 C 14,4 C 76 % 1019,0 hPa 0,0 l/m 0 min 0 min 0 W/m 4,5 km/h (1 Bft) 95,92 %
14.09.2018 23:30 14,7 C 14,4 C 14,4 C 76 % 1018,9 hPa 0,0 l/m 0 min 0 min 0 W/m 0,0 km/h (0 Bft) 95,74 %
14.09.2018 23:32 14,7 C 14,4 C 14,4 C 76 % 1019,0 hPa 0,0 l/m 0 min 0 min 0 W/m 2,3 km/h (1 Bft) 96,23 %
14.09.2018 23:34 14,8 C 14,4 C 14,4 C 75 % 1019,0 hPa 0,0 l/m 0 min 0 min 0 W/m 0,0 km/h (0 Bft) 97,44 %
14.09.2018 23:36 14,8 C 14,4 C 14,4 C 75 % 1019,0 hPa 0,0 l/m 0 min 0 min 0 W/m 2,3 km/h (1 Bft) 97,96 %
14.09.2018 23:38 14,8 C 14,4 C 14,4 C 75 % 1019,1 hPa 0,0 l/m 0 min 0 min 0 W/m 2,3 km/h (1 Bft) 97,87 %
14.09.2018 23:40 14,8 C 14,4 C 14,4 C 75 % 1019,0 hPa 0,0 l/m 0 min 0 min 0 W/m 4,5 km/h (1 Bft) 100,00 %
14.09.2018 23:42 14,9 C 14,4 C 14,4 C 75 % 1019,1 hPa 0,0 l/m 0 min 0 min 0 W/m 4,5 km/h (1 Bft) 97,87 %
14.09.2018 23:44 14,9 C 14,4 C 14,4 C 75 % 1019,1 hPa 0,0 l/m 0 min 0 min 0 W/m 4,5 km/h (1 Bft) 97,87 %
14.09.2018 23:46 14,9 C 14,4 C 14,4 C 75 % 1019,1 hPa 0,0 l/m 0 min 0 min 0 W/m 2,3 km/h (1 Bft) 97,87 %
14.09.2018 23:48 14,9 C 14,4 C 14,4 C 75 % 1019,2 hPa 0,0 l/m 0 min 0 min 0 W/m 0,0 km/h (0 Bft) 97,83 %
14.09.2018 23:50 14,9 C 14,4 C 14,4 C 75 % 1019,1 hPa 0,0 l/m 0 min 0 min 0 W/m 0,0 km/h (0 Bft) 95,74 %
14.09.2018 23:52 14,9 C 14,4 C 13,9 C 75 % 1019,0 hPa 0,0 l/m 0 min 0 min 0 W/m 2,3 km/h (1 Bft) 97,96 %
14.09.2018 23:54 14,9 C 14,4 C 13,9 C 75 % 1019,1 hPa 0,0 l/m 0 min 0 min 0 W/m 2,3 km/h (1 Bft) 97,87 %
14.09.2018 23:56 14,9 C 14,4 C 13,9 C 75 % 1019,1 hPa 0,0 l/m 0 min 0 min 0 W/m 2,3 km/h (1 Bft) 97,96 %
14.09.2018 23:58 14,9 C 14,4 C 13,9 C 75 % 1019,2 hPa 0,0 l/m 0 min 0 min 0 W/m 4,5 km/h (1 Bft) 97,87 %
_ Min-Zeit 07:26 06:58 06:16 15:36 17:02 - - - - 00:02 02:00
Minimum _ 7,2 C 6,1 C 6,7 C 50 % 1017,6 hPa - - - - 0,0 km/h (0 Bft) 91,30 %
_ Max-Zeit 16:24 12:34 14:24 10:14 00:56 00:00 09:36 00:00 14:18 14:20 00:00
Maximum _ 21,1 C 27,2 C 19,4 C 98 % 1019,7 hPa 0,0 l/m 2 min 0 min 770 W/m 20,3 km/h
SW (4 Bft)
100,00 %
Durchschnitt _ 14,4 C 14,7 C 13,0 C 75 % 1018,7 hPa #0,0 l/m #7:24 h #0 min. 287 W/m 2,8 km/h (1 Bft) 97,59 %
© 2018 W. Hausmann